M I D A S
Marine Information and Data Acquisition System
Tripno 646 of the Zeeleeuw from 2004-02-11 07:52:58 to 2004-02-11 17:59:42
Back to CruiseResearch ActivitiesStationsMapUnderway DataData graphs

EquipmentUnitsComment
TimeDGPSUTC
LatitudeDGPSDM.mWGS84
LongitudeDGPSDM.mWGS84
TemperatureSBE03/SBE38deg celciusITS90
ConductivitySBE21S/mITS90
SalinitySBE21 Practical Salinity Units
ChlorophylAChelsea fluorimeterg/lCalibrated in Aceton
Missing or incorrect values are displayed as -999
Sea surface data collected by the RV Zeeleeuw from 2004-02-11 07:52:58 to 2004-02-11 17:59:42
                                                                                    Next 1000 lines
Time Latitude Longitude Temperature Conductivity Salinity ChlorophylA
2004-02-11 07:53:06 51°13.602 2°56.068 13.283441 0.550417 3.827966 -0.848668
2004-02-11 07:53:10 51°13.603 2°56.062 13.283441 0.550417 3.827966 -0.848668
2004-02-11 07:53:15 51°13.606 2°56.054 13.267552 0.550417 3.827891 -0.848668
2004-02-11 07:53:21 51°13.608 2°56.043 13.303253 0.550417 3.827891 -0.848668
2004-02-11 07:53:26 51°13.611 2°56.034 13.292991 0.550209 3.826341 -0.882377
2004-02-11 07:53:31 51°13.614 2°56.025 13.303386 0.550313 3.827041 -0.848668
2004-02-11 07:53:35 51°13.616 2°56.018 13.310257 0.550313 3.827041 -0.882377
2004-02-11 07:53:41 51°13.619 2°56.006 13.310257 0.550313 3.827041 -0.882377
2004-02-11 07:53:46 51°13.622 2°55.996 13.316011 0.550417 3.827816 -0.848668
2004-02-11 07:53:51 51°13.625 2°55.986 13.29424 0.550417 3.827816 -0.882377
2004-02-11 07:53:55 51°13.627 2°55.978 13.321988 0.550417 3.827816 -0.848668
2004-02-11 07:54:01 51°13.631 2°55.966 13.333227 0.550417 3.827741 -0.882377
2004-02-11 07:54:06 51°13.634 2°55.956 13.350482 0.550417 3.827741 -0.814958
2004-02-11 07:54:11 51°13.637 2°55.946 13.350482 0.550417 3.827741 -0.814958
2004-02-11 07:54:15 51°13.64 2°55.937 13.352845 0.550417 3.82759 -0.848668
2004-02-11 07:54:21 51°13.644 2°55.925 13.340495 0.550417 3.827515 -0.848668
2004-02-11 07:54:26 51°13.648 2°55.915 13.338399 0.550417 3.827515 -0.848668
2004-02-11 07:54:31 51°13.652 2°55.905 13.331844 0.550417 3.827515 -0.882377
2004-02-11 07:54:35 51°13.655 2°55.897 13.32899 0.550417 3.82744 -0.882377
2004-02-11 07:54:41 51°13.659 2°55.885 13.32899 0.550417 3.82744 -0.882377
2004-02-11 07:54:46 51°13.663 2°55.875 13.327161 0.550417 3.82744 -0.848668
2004-02-11 07:54:50 51°13.666 2°55.867 13.32511 0.550417 3.82744 -0.848668
2004-02-11 07:54:55 51°13.67 2°55.857 13.330863 0.550417 3.82744 -0.848668
2004-02-11 07:55:01 51°13.675 2°55.846 13.331443 0.550522 3.828215 -0.882377
2004-02-11 07:55:06 51°13.679 2°55.836 13.355832 0.550522 3.828215 -0.882377
2004-02-11 07:55:11 51°13.682 2°55.828 13.355832 0.550522 3.828215 -0.882377
2004-02-11 07:55:15 51°13.684 2°55.822 13.35182 0.550522 3.828065 -0.848668
2004-02-11 07:55:19 51°13.686 2°55.818 13.334029 0.550522 3.827914 -0.848668
2004-02-11 07:55:25 51°13.687 2°55.815 13.518126 0.550522 3.82799 -0.814958
2004-02-11 07:55:30 51°13.687 2°55.814 13.470792 0.550522 3.827914 -0.848668
2004-02-11 07:55:35 51°13.687 2°55.816 13.403069 0.550522 3.827914 -0.882377
2004-02-11 07:55:41 51°13.687 2°55.819 13.403069 0.550522 3.827914 -0.882377
2004-02-11 07:55:45 51°13.687 2°55.82 13.322791 0.550522 3.828065 -0.848668
2004-02-11 07:55:50 51°13.686 2°55.821 13.256927 0.550522 3.82799 -0.848668
2004-02-11 07:55:55 51°13.687 2°55.82 13.28295 0.550522 3.827914 -0.882377
2004-02-11 07:55:59 51°13.686 2°55.819 13.285003 0.550522 3.827689 -0.882377
2004-02-11 07:56:05 51°13.686 2°55.816 13.593462 0.550522 3.831751 -0.882377
2004-02-11 07:56:10 51°13.686 2°55.812 13.593462 0.550522 3.831751 -0.882377
2004-02-11 07:56:15 51°13.686 2°55.808 13.54058 0.550626 3.829366 -0.882377
2004-02-11 07:56:19 51°13.686 2°55.804 13.504516 0.550417 3.826388 -0.848668
2004-02-11 07:56:26 51°13.685 2°55.796 13.537335 0.550313 3.827867 -0.848668
2004-02-11 07:56:30 51°13.685 2°55.792 13.459977 0.550313 3.835477 -0.882377
2004-02-11 07:56:35 51°13.685 2°55.786 13.467765 0.550209 3.845605 -0.848668
2004-02-11 07:56:41 51°13.684 2°55.778 13.467765 0.550209 3.845605 -0.848668
2004-02-11 07:56:46 51°13.684 2°55.772 13.490503 0.550209 3.849027 -0.882377
2004-02-11 07:56:51 51°13.683 2°55.767 13.559693 0.550105 3.848323 -0.848668
2004-02-11 07:56:56 51°13.683 2°55.764 13.570359 0.550104 3.844446 -0.848668
2004-02-11 07:57:01 51°13.683 2°55.763 13.62233 0.55 3.841998 -0.848668
2004-02-11 07:57:05 51°13.683 2°55.764 13.645548 0.549896 3.841826 -0.848668
2004-02-11 07:57:10 51°13.684 2°55.765 13.645548 0.549896 3.841826 -0.848668
2004-02-11 07:57:15 51°13.686 2°55.768 13.661214 0.549791 3.844235 -0.848668
2004-02-11 07:57:20 51°13.689 2°55.77 13.656466 0.549791 3.848419 -0.848668
2004-02-11 07:57:25 51°13.692 2°55.773 13.630632 0.549687 3.850382 -0.848668
2004-02-11 07:57:30 51°13.696 2°55.775 13.642574 0.549583 3.850593 -0.882377
2004-02-11 07:57:35 51°13.7 2°55.777 13.52653 0.549478 3.848821 -0.882377
2004-02-11 07:57:39 51°13.703 2°55.777 13.52653 0.549478 3.848821 -0.882377
2004-02-11 07:57:45 51°13.706 2°55.778 13.441725 0.549478 3.846231 -0.848668
2004-02-11 07:57:50 51°13.707 2°55.778 13.458641 0.549374 3.842941 -0.848668
2004-02-11 07:57:55 51°13.708 2°55.778 13.470213 0.549374 3.841953 -0.848668
2004-02-11 07:57:59 51°13.708 2°55.778 13.406588 0.549374 3.840966 -0.848668
2004-02-11 07:58:05 51°13.707 2°55.778 13.396075 0.549165 3.839104 -0.848668
2004-02-11 07:58:09 51°13.705 2°55.778 13.396075 0.549165 3.839104 -0.848668
2004-02-11 07:58:15 51°13.703 2°55.778 13.523017 0.549165 3.840167 -0.848668
2004-02-11 07:58:21 51°13.702 2°55.778 13.461713 0.549165 3.841002 -0.848668
2004-02-11 07:58:26 51°13.702 2°55.778 13.472839 0.549061 3.840222 -0.848668
2004-02-11 07:58:31 51°13.703 2°55.776 13.574758 0.549061 3.84083 -0.848668
2004-02-11 07:58:35 51°13.705 2°55.775 13.576002 0.549061 3.840906 -0.848668
2004-02-11 07:58:41 51°13.708 2°55.771 13.576002 0.549061 3.840906 -0.848668
2004-02-11 07:58:46 51°13.711 2°55.768 13.446088 0.549061 3.839615 -0.848668
2004-02-11 07:58:50 51°13.713 2°55.765 13.426497 0.548956 3.838001 -0.848668
2004-02-11 07:58:55 51°13.715 2°55.761 13.435893 0.548956 3.83747 -0.882377
2004-02-11 07:59:01 51°13.718 2°55.757 13.438431 0.548956 3.837242 -0.848668
2004-02-11 07:59:06 51°13.72 2°55.753 13.437317 0.548956 3.836939 -0.848668
2004-02-11 07:59:11 51°13.722 2°55.749 13.437317 0.548956 3.836939 -0.848668
2004-02-11 07:59:15 51°13.725 2°55.746 13.452721 0.548852 3.835857 -0.814958
2004-02-11 07:59:20 51°13.728 2°55.741 13.469902 0.548956 3.836333 -0.848668
2004-02-11 07:59:25 51°13.732 2°55.736 13.450629 0.548852 3.835251 -0.848668
2004-02-11 07:59:30 51°13.736 2°55.73 13.456238 0.548852 3.835024 -0.882377
2004-02-11 07:59:35 51°13.741 2°55.723 13.434735 0.548852 3.834796 -0.848668
2004-02-11 07:59:41 51°13.748 2°55.714 13.434735 0.548852 3.834796 -0.848668
2004-02-11 07:59:45 51°13.752 2°55.708 13.44364 0.548852 3.834569 -0.882377
2004-02-11 07:59:50 51°13.758 2°55.7 13.410063 0.548852 3.834342 -0.814958
2004-02-11 07:59:55 51°13.765 2°55.692 13.379187 0.548852 3.834039 -0.848668
2004-02-11 07:59:59 51°13.77 2°55.686 13.395273 0.548748 3.833034 -0.882377
2004-02-11 08:00:05 51°13.779 2°55.677 13.373082 0.548852 3.833585 -0.848668
2004-02-11 08:00:10 51°13.787 2°55.669 13.373082 0.548852 3.833585 -0.848668
2004-02-11 08:00:15 51°13.795 2°55.662 13.392288 0.548748 3.832731 -0.848668
2004-02-11 08:00:19 51°13.802 2°55.656 13.396208 0.548748 3.83258 -0.848668
2004-02-11 08:00:25 51°13.812 2°55.647 13.407212 0.548748 3.832428 -0.882377
2004-02-11 08:00:30 51°13.822 2°55.639 13.396119 0.548748 3.832277 -0.848668
2004-02-11 08:00:35 51°13.831 2°55.632 13.40739 0.548748 3.83205 -0.848668
2004-02-11 08:00:39 51°13.838 2°55.626 13.40739 0.548748 3.83205 -0.848668
2004-02-11 08:00:45 51°13.849 2°55.617 13.366887 0.548748 3.831823 -0.882377
2004-02-11 08:00:50 51°13.859 2°55.61 13.40151 0.548852 3.83245 -0.848668
2004-02-11 08:00:55 51°13.869 2°55.602 13.402267 0.548748 3.831672 -0.848668
2004-02-11 08:00:59 51°13.876 2°55.596 13.396476 0.548852 3.832375 -0.848668
2004-02-11 08:01:05 51°13.888 2°55.587 13.422756 0.548748 3.831596 -0.814958
2004-02-11 08:01:09 51°13.896 2°55.582 13.422756 0.548748 3.831596 -0.814958
2004-02-11 08:01:15 51°13.908 2°55.573 13.438386 0.548852 3.832375 -0.848668
2004-02-11 08:01:20 51°13.918 2°55.566 13.387075 0.548748 3.831294 -0.848668
2004-02-11 08:01:25 51°13.928 2°55.559 13.360958 0.548852 3.831921 -0.848668
2004-02-11 08:01:29 51°13.936 2°55.553 13.39153 0.548852 3.83177 -0.848668
2004-02-11 08:01:35 51°13.949 2°55.545 13.404539 0.548852 3.831694 -0.848668
2004-02-11 08:01:39 51°13.957 2°55.54 13.404539 0.548852 3.831694 -0.848668
2004-02-11 08:01:45 51°13.97 2°55.532 13.432998 0.548852 3.831694 -0.848668
2004-02-11 08:01:50 51°13.981 2°55.525 13.380747 0.548852 3.831543 -0.848668
2004-02-11 08:01:55 51°13.992 2°55.518 13.378519 0.548852 3.831467 -0.848668
2004-02-11 08:01:59 51°14 2°55.513 13.408103 0.548852 3.831392 -0.848668
2004-02-11 08:02:05 51°14.013 2°55.505 13.438653 0.548852 3.831467 -0.814958
2004-02-11 08:02:10 51°14.025 2°55.498 13.438653 0.548852 3.831467 -0.814958
2004-02-11 08:02:15 51°14.036 2°55.49 13.444263 0.548852 3.831392 -0.848668
2004-02-11 08:02:19 51°14.046 2°55.484 13.395629 0.548852 3.831316 -0.882377
2004-02-11 08:02:25 51°14.06 2°55.474 13.441814 0.548852 3.83124 -0.882377
2004-02-11 08:02:30 51°14.072 2°55.466 13.36341 0.548852 3.831014 -0.882377
2004-02-11 08:02:35 51°14.084 2°55.458 13.365817 0.548852 3.830938 -0.882377
2004-02-11 08:02:39 51°14.094 2°55.451 13.365817 0.548852 3.830938 -0.882377
2004-02-11 08:02:45 51°14.108 2°55.44 13.375622 0.548852 3.830787 -0.882377
2004-02-11 08:02:50 51°14.12 2°55.431 13.367555 0.548956 3.831565 -0.848668
2004-02-11 08:02:55 51°14.132 2°55.421 13.392555 0.548956 3.831489 -0.882377
2004-02-11 08:02:59 51°14.142 2°55.413 13.40396 0.548852 3.830711 -0.882377
2004-02-11 08:03:05 51°14.156 2°55.399 13.443773 0.548852 3.830636 -0.848668
2004-02-11 08:03:10 51°14.168 2°55.387 13.443773 0.548852 3.830636 -0.848668
2004-02-11 08:03:15 51°14.181 2°55.375 13.406276 0.548852 3.83056 -0.848668
2004-02-11 08:03:21 51°14.195 2°55.359 13.417145 0.548852 3.830711 -0.848668
2004-02-11 08:03:25 51°14.204 2°55.347 13.448092 0.548956 3.831414 -0.848668
2004-02-11 08:03:29 51°14.213 2°55.335 13.389703 0.548852 3.830485 -0.882377
2004-02-11 08:03:35 51°14.227 2°55.316 13.347941 0.548852 3.830334 -0.882377
2004-02-11 08:03:39 51°14.236 2°55.303 13.347941 0.548852 3.830334 -0.882377
2004-02-11 08:03:45 51°14.25 2°55.283 13.422266 0.548748 3.829405 -0.848668
2004-02-11 08:03:50 51°14.26 2°55.265 13.374954 0.549061 3.831587 -0.848668
2004-02-11 08:03:55 51°14.271 2°55.247 13.328321 0.549165 3.832592 -0.848668
2004-02-11 08:03:59 51°14.278 2°55.232 13.318553 0.548956 3.831263 -0.848668
2004-02-11 08:04:05 51°14.29 2°55.209 13.33229 0.548956 3.830809 -0.848668
2004-02-11 08:04:10 51°14.3 2°55.189 13.33229 0.548956 3.830809 -0.848668
2004-02-11 08:04:15 51°14.309 2°55.169 13.30004 0.548956 3.830583 -0.882377
2004-02-11 08:04:19 51°14.317 2°55.153 13.269382 0.549165 3.831912 -0.848668
2004-02-11 08:04:25 51°14.328 2°55.128 13.240987 0.549061 3.831209 -0.882377
2004-02-11 08:04:30 51°14.338 2°55.108 13.199936 0.549061 3.830605 -0.882377
2004-02-11 08:04:35 51°14.348 2°55.088 13.21191 0.549061 3.830001 -0.848668
2004-02-11 08:04:39 51°14.356 2°55.071 13.21191 0.549061 3.830001 -0.848668
2004-02-11 08:04:45 51°14.368 2°55.047 13.178082 0.549269 3.832009 -0.848668
2004-02-11 08:04:50 51°14.379 2°55.026 13.161989 0.549269 3.831707 -0.882377
2004-02-11 08:04:55 51°14.389 2°55.005 13.38556 0.548956 3.829299 -0.814958
2004-02-11 08:05:00 51°14.399 2°54.983 13.373126 0.548852 3.829654 -0.848668
2004-02-11 08:05:05 51°14.408 2°54.961 13.276747 0.549061 3.831361 -0.882377
2004-02-11 08:05:10 51°14.417 2°54.937 13.276747 0.549061 3.831361 -0.882377
2004-02-11 08:05:15 51°14.424 2°54.913 13.277907 0.549165 3.831912 -0.848668
2004-02-11 08:05:19 51°14.431 2°54.893 13.299014 0.548852 3.829352 -0.882377
2004-02-11 08:05:25 51°14.44 2°54.863 13.308338 0.548748 3.827442 -0.848668
2004-02-11 08:05:30 51°14.448 2°54.84 13.09807 0.549374 3.830295 -0.848668
2004-02-11 08:05:35 51°14.457 2°54.818 13.198551 0.549165 3.828213 -0.848668
2004-02-11 08:05:39 51°14.464 2°54.801 13.198551 0.549165 3.828213 -0.848668
2004-02-11 08:05:45 51°14.474 2°54.778 13.253221 0.549269 3.829443 -0.848668
2004-02-11 08:05:50 51°14.482 2°54.759 13.323058 0.548956 3.830054 -0.848668
2004-02-11 08:05:55 51°14.49 2°54.741 13.242282 0.549374 3.834148 -0.814958
2004-02-11 08:06:00 51°14.497 2°54.724 13.304189 0.549061 3.831663 -0.848668
2004-02-11 08:06:05 51°14.504 2°54.707 13.351641 0.548852 3.829503 -0.882377
2004-02-11 08:06:10 51°14.511 2°54.691 13.351641 0.548852 3.829503 -0.882377
2004-02-11 08:06:15 51°14.518 2°54.675 13.24831 0.549165 3.831005 -0.848668
2004-02-11 08:06:20 51°14.525 2°54.659 13.276613 0.549165 3.831156 -0.882377
2004-02-11 08:06:25 51°14.532 2°54.643 13.27938 0.548956 3.830658 -0.848668
2004-02-11 08:06:30 51°14.538 2°54.627 13.242952 0.549165 3.832441 -0.882377
2004-02-11 08:06:35 51°14.544 2°54.612 13.217047 0.549165 3.832138 -0.814958
2004-02-11 08:06:39 51°14.549 2°54.599 13.279603 0.548852 3.829881 -0.882377
2004-02-11 08:06:45 51°14.556 2°54.581 13.279603 0.548852 3.829881 -0.882377
2004-02-11 08:06:50 51°14.561 2°54.566 13.354138 0.548748 3.828725 -0.848668
2004-02-11 08:06:55 51°14.566 2°54.55 13.229688 0.549374 3.833769 -0.814958
2004-02-11 08:06:59 51°14.57 2°54.538 13.29192 0.548852 3.829578 -0.848668
2004-02-11 08:07:05 51°14.577 2°54.52 13.251436 0.548956 3.829903 -0.848668
2004-02-11 08:07:10 51°14.583 2°54.505 13.251436 0.548956 3.829903 -0.848668
2004-02-11 08:07:15 51°14.589 2°54.488 13.315342 0.548748 3.828876 -0.848668
2004-02-11 08:07:19 51°14.595 2°54.474 13.221514 0.549374 3.833921 -0.848668
2004-02-11 08:07:25 51°14.604 2°54.452 13.259829 0.548852 3.830032 -0.848668
2004-02-11 08:07:30 51°14.612 2°54.431 13.268802 0.548956 3.829979 -0.848668
2004-02-11 08:07:35 51°14.62 2°54.41 13.270676 0.548956 3.829752 -0.848668
2004-02-11 08:07:39 51°14.627 2°54.392 13.270676 0.548956 3.829752 -0.848668
2004-02-11 08:07:45 51°14.638 2°54.365 13.216422 0.548852 3.828673 -0.882377
2004-02-11 08:07:50 51°14.648 2°54.341 13.132609 0.549165 3.830703 -0.814958
2004-02-11 08:07:55 51°14.658 2°54.317 13.134264 0.549165 3.831005 -0.882377
2004-02-11 08:07:59 51°14.666 2°54.298 13.194127 0.548643 3.82674 -0.848668
2004-02-11 08:08:05 51°14.678 2°54.268 13.141778 0.549478 3.833111 -0.848668
2004-02-11 08:08:10 51°14.688 2°54.243 13.141778 0.549478 3.833111 -0.848668
2004-02-11 08:08:15 51°14.697 2°54.218 13.259829 0.548852 3.827692 -0.848668
2004-02-11 08:08:19 51°14.705 2°54.197 13.148933 0.549374 3.831579 -0.848668
2004-02-11 08:08:25 51°14.717 2°54.166 13.194529 0.548956 3.828167 -0.882377
2004-02-11 08:08:30 51°14.726 2°54.139 13.249114 0.549061 3.829246 -0.848668
2004-02-11 08:08:35 51°14.735 2°54.113 13.133101 0.549478 3.833338 -0.848668
2004-02-11 08:08:39 51°14.743 2°54.092 13.133101 0.549478 3.833338 -0.848668
2004-02-11 08:08:45 51°14.754 2°54.061 13.143164 0.549269 3.832312 -0.882377
2004-02-11 08:08:50 51°14.764 2°54.035 13.163822 0.548852 3.829805 -0.848668
2004-02-11 08:08:55 51°14.774 2°54.009 13.119905 0.549374 3.834753 -0.848668
2004-02-11 08:09:01 51°14.785 2°53.978 13.158457 0.549061 3.831814 -0.848668
2004-02-11 08:09:05 51°14.793 2°53.957 13.20914 0.548956 3.829601 -0.848668
2004-02-11 08:09:10 51°14.803 2°53.931 13.20914 0.548956 3.829601 -0.848668
2004-02-11 08:09:15 51°14.813 2°53.905 13.153986 0.548956 3.829299 -0.882377
2004-02-11 08:09:19 51°14.821 2°53.884 13.190552 0.548852 3.82822 -0.848668
2004-02-11 08:09:25 51°14.833 2°53.853 13.139676 0.549061 3.830001 -0.848668
2004-02-11 08:09:29 51°14.841 2°53.832 13.206995 0.549165 3.831307 -0.848668
2004-02-11 08:09:35 51°14.853 2°53.802 13.182954 0.549061 3.830756 -0.848668
2004-02-11 08:09:40 51°14.863 2°53.775 13.182954 0.549061 3.830756 -0.848668
2004-02-11 08:09:45 51°14.873 2°53.749 13.152555 0.549165 3.831836 -0.848668
2004-02-11 08:09:50 51°14.883 2°53.723 13.153807 0.548956 3.831263 -0.882377
2004-02-11 08:09:55 51°14.893 2°53.697 13.135874 0.548956 3.830507 -0.848668
2004-02-11 08:09:59 51°14.901 2°53.676 13.160648 0.548956 3.830356 -0.848668
2004-02-11 08:10:05 51°14.913 2°53.645 13.189211 0.548852 3.829352 -0.814958
2004-02-11 08:10:09 51°14.921 2°53.625 13.189211 0.548852 3.829352 -0.814958
2004-02-11 08:10:15 51°14.933 2°53.593 13.162973 0.549269 3.831254 -0.848668
2004-02-11 08:10:19 51°14.941 2°53.572 13.205253 0.549061 3.829699 -0.848668
2004-02-11 08:10:25 51°14.953 2°53.541 13.173612 0.549165 3.830854 -0.848668
2004-02-11 08:10:30 51°14.963 2°53.515 13.154209 0.549583 3.835098 -0.882377
2004-02-11 08:10:35 51°14.972 2°53.489 13.153047 0.548748 3.829254 -0.848668
2004-02-11 08:10:39 51°14.98 2°53.468 13.153047 0.548748 3.829254 -0.848668
2004-02-11 08:10:45 51°14.992 2°53.436 13.155774 0.549061 3.82985 -0.814958
2004-02-11 08:10:49 51°15 2°53.415 13.142046 0.549061 3.833326 -0.848668
2004-02-11 08:10:55 51°15.012 2°53.384 13.142762 0.549478 3.838181 -0.848668
2004-02-11 08:10:59 51°15.021 2°53.364 13.18425 0.548956 3.832623 -0.814958
2004-02-11 08:11:05 51°15.032 2°53.333 13.157876 0.549165 3.832592 -0.848668
2004-02-11 08:11:10 51°15.043 2°53.306 13.157876 0.549165 3.832592 -0.848668
2004-02-11 08:11:15 51°15.053 2°53.28 13.154433 0.549269 3.832312 -0.848668
2004-02-11 08:11:19 51°15.061 2°53.259 13.170394 0.549165 3.832214 -0.848668
2004-02-11 08:11:25 51°15.072 2°53.227 13.181971 0.549165 3.832894 -0.848668
2004-02-11 08:11:30 51°15.081 2°53.2 13.207755 0.549061 3.831738 -0.848668
2004-02-11 08:11:35 51°15.09 2°53.172 13.191624 0.548956 3.83096 -0.848668
2004-02-11 08:11:39 51°15.098 2°53.151 13.191624 0.548956 3.83096 -0.848668
2004-02-11 08:11:45 51°15.108 2°53.118 13.206995 0.548956 3.83096 -0.848668
2004-02-11 08:11:50 51°15.117 2°53.09 13.212401 0.549165 3.832743 -0.848668
2004-02-11 08:11:55 51°15.126 2°53.063 13.15801 0.549269 3.835034 -0.848668
2004-02-11 08:11:59 51°15.133 2°53.04 13.148531 0.549478 3.836817 -0.814958
2004-02-11 08:12:05 51°15.143 2°53.007 13.200427 0.548956 3.83217 -0.848668
2004-02-11 08:12:09 51°15.15 2°52.985 13.200427 0.548956 3.83217 -0.848668
2004-02-11 08:12:15 51°15.16 2°52.951 13.169276 0.549061 3.834309 -0.848668
2004-02-11 08:12:19 51°15.167 2°52.929 13.192563 0.548748 3.832126 -0.848668
2004-02-11 08:12:25 51°15.177 2°52.895 13.172048 0.549061 3.833023 -0.848668
2004-02-11 08:12:30 51°15.185 2°52.866 13.169053 0.548956 3.830809 -0.848668
2004-02-11 08:12:35 51°15.194 2°52.838 13.155104 0.548956 3.831489 -0.882377
2004-02-11 08:12:39 51°15.2 2°52.815 13.155104 0.548956 3.831489 -0.882377
2004-02-11 08:12:45 51°15.21 2°52.782 13.142583 0.549061 3.832948 -0.882377
2004-02-11 08:12:50 51°15.219 2°52.753 13.163107 0.548852 3.83177 -0.814958
2004-02-11 08:12:55 51°15.227 2°52.725 13.192116 0.548748 3.831521 -0.814958
2004-02-11 08:12:59 51°15.234 2°52.702 13.153852 0.548956 3.833153 -0.882377
2004-02-11 08:13:05 51°15.244 2°52.668 13.214456 0.548539 3.829964 -0.882377
2004-02-11 08:13:10 51°15.253 2°52.64 13.214456 0.548539 3.829964 -0.882377
2004-02-11 08:13:15 51°15.261 2°52.612 13.204761 0.549165 3.833877 -0.848668
2004-02-11 08:13:19 51°15.268 2°52.59 13.144819 0.549374 3.836796 -0.848668
2004-02-11 08:13:25 51°15.278 2°52.556 13.165297 0.548956 3.833834 -0.882377
2004-02-11 08:13:30 51°15.286 2°52.528 13.160245 0.549269 3.835412 -0.848668
2004-02-11 08:13:35 51°15.295 2°52.5 13.152153 0.549061 3.834839 -0.848668
2004-02-11 08:13:39 51°15.302 2°52.477 13.153986 0.549061 3.834234 -0.848668
2004-02-11 08:13:45 51°15.312 2°52.444 13.153986 0.549061 3.834234 -0.848668
2004-02-11 08:13:49 51°15.318 2°52.421 13.188853 0.548748 3.831445 -0.882377
2004-02-11 08:13:55 51°15.328 2°52.388 13.151527 0.548956 3.83285 -0.848668
2004-02-11 08:13:59 51°15.335 2°52.365 13.197836 0.548434 3.828506 -0.848668
2004-02-11 08:14:05 51°15.345 2°52.332 13.188764 0.548956 3.832094 -0.882377
2004-02-11 08:14:10 51°15.354 2°52.304 13.188764 0.548956 3.832094 -0.882377
2004-02-11 08:14:15 51°15.362 2°52.276 13.166147 0.548643 3.831347 -0.848668
2004-02-11 08:14:19 51°15.368 2°52.253 13.160201 0.549269 3.837229 -0.848668
2004-02-11 08:14:25 51°15.378 2°52.22 13.171645 0.548852 3.834342 -0.848668
2004-02-11 08:14:30 51°15.384 2°52.19 13.190239 0.549165 3.839104 -0.848668
2004-02-11 08:14:35 51°15.391 2°52.161 13.182999 0.548852 3.835024 -0.882377
2004-02-11 08:14:39 51°15.395 2°52.137 13.182999 0.548852 3.835024 -0.882377
2004-02-11 08:14:45 51°15.403 2°52.102 13.215841 0.548748 3.833261 -0.814958
2004-02-11 08:14:50 51°15.408 2°52.072 13.155148 0.549269 3.837457 -0.882377
2004-02-11 08:14:55 51°15.414 2°52.042 13.180719 0.548434 3.830849 -0.882377
2004-02-11 08:14:59 51°15.419 2°52.018 13.173791 0.548643 3.832104 -0.848668
2004-02-11 08:15:05 51°15.425 2°51.982 13.175132 0.548434 3.830547 -0.848668
2004-02-11 08:15:09 51°15.429 2°51.958 13.175132 0.548434 3.830547 -0.848668
2004-02-11 08:15:15 51°15.435 2°51.922 13.171869 0.548643 3.831725 -0.882377
2004-02-11 08:15:19 51°15.439 2°51.897 13.187513 0.548643 3.831725 -0.848668
2004-02-11 08:15:25 51°15.444 2°51.861 13.179736 0.548643 3.830364 -0.882377
2004-02-11 08:15:30 51°15.449 2°51.83 13.172361 0.548643 3.829987 -0.848668
2004-02-11 08:15:35 51°15.452 2°51.798 13.211463 0.548539 3.829964 -0.848668
2004-02-11 08:15:40 51°15.455 2°51.767 13.211463 0.548539 3.829964 -0.848668
2004-02-11 08:15:45 51°15.457 2°51.735 13.198908 0.548852 3.832148 -0.848668
2004-02-11 08:15:50 51°15.46 2°51.704 13.180004 0.548748 3.831294 -0.848668
2004-02-11 08:15:55 51°15.462 2°51.672 13.17549 0.548539 3.829964 -0.882377
2004-02-11 08:15:59 51°15.464 2°51.647 13.16713 0.548852 3.833055 -0.882377
2004-02-11 08:16:05 51°15.466 2°51.609 13.165521 0.549061 3.833931 -0.848668
2004-02-11 08:16:10 51°15.468 2°51.577 13.165521 0.549061 3.833931 -0.848668
2004-02-11 08:16:15 51°15.47 2°51.545 13.183088 0.548748 3.831369 -0.848668
2004-02-11 08:16:20 51°15.472 2°51.513 13.206861 0.548956 3.83285 -0.882377
2004-02-11 08:16:25 51°15.475 2°51.482 13.173612 0.548956 3.832699 -0.814958
2004-02-11 08:16:30 51°15.477 2°51.45 13.190373 0.548643 3.830742 -0.848668
2004-02-11 08:16:35 51°15.479 2°51.418 13.206057 0.548748 3.830765 -0.882377
2004-02-11 08:16:40 51°15.481 2°51.387 13.206057 0.548748 3.830765 -0.882377
2004-02-11 08:16:45 51°15.483 2°51.355 13.190373 0.548748 3.831747 -0.848668
2004-02-11 08:16:50 51°15.485 2°51.323 13.174462 0.548956 3.832321 -0.848668
2004-02-11 08:16:55 51°15.488 2°51.292 13.181926 0.548956 3.832321 -0.882377
2004-02-11 08:16:59 51°15.489 2°51.266 13.208693 0.548643 3.830289 -0.848668
2004-02-11 08:17:05 51°15.492 2°51.229 13.209855 0.548956 3.832775 -0.848668
2004-02-11 08:17:10 51°15.494 2°51.197 13.209855 0.548956 3.832775 -0.848668
2004-02-11 08:17:15 51°15.496 2°51.165 13.163196 0.549478 3.836969 -0.848668
2004-02-11 08:17:19 51°15.498 2°51.14 13.211597 0.548852 3.834721 -0.848668
2004-02-11 08:17:25 51°15.501 2°51.102 13.200159 0.548956 3.835272 -0.882377
2004-02-11 08:17:30 51°15.504 2°51.071 13.186932 0.549165 3.835618 -0.848668
2004-02-11 08:17:35 51°15.506 2°51.039 13.1792 0.549269 3.835639 -0.848668
2004-02-11 08:17:39 51°15.508 2°51.014 13.1792 0.549269 3.835639 -0.848668
2004-02-11 08:17:45 51°15.51 2°50.976 13.177591 0.549061 3.834688 -0.848668
2004-02-11 08:17:49 51°15.512 2°50.951 13.190641 0.549269 3.835109 -0.848668
2004-02-11 08:17:55 51°15.515 2°50.913 13.204002 0.549165 3.836375 -0.848668
2004-02-11 08:18:00 51°15.518 2°50.881 13.174953 0.549374 3.835888 -0.848668
2004-02-11 08:18:05 51°15.52 2°50.849 13.185233 0.549269 3.835488 -0.848668
2004-02-11 08:18:10 51°15.522 2°50.818 13.185233 0.549269 3.835488 -0.848668
2004-02-11 08:18:15 51°15.525 2°50.786 13.216288 0.549165 3.835088 -0.848668
2004-02-11 08:18:19 51°15.527 2°50.761 13.204672 0.549478 3.837044 -0.848668
2004-02-11 08:18:25 51°15.53 2°50.723 13.190462 0.549583 3.838126 -0.882377
2004-02-11 08:18:30 51°15.532 2°50.692 13.183267 0.549583 3.837671 -0.882377
2004-02-11 08:18:35 51°15.534 2°50.66 13.168874 0.549583 3.837595 -0.848668
2004-02-11 08:18:39 51°15.537 2°50.635 13.168874 0.549583 3.837595 -0.848668
2004-02-11 08:18:45 51°15.54 2°50.597 13.189211 0.549687 3.840572 -0.814958
2004-02-11 08:18:50 51°15.542 2°50.565 13.165923 0.549791 3.841426 -0.848668
2004-02-11 08:18:55 51°15.545 2°50.534 13.181971 0.549791 3.84082 -0.848668
2004-02-11 08:18:59 51°15.546 2°50.509 13.194261 0.549896 3.842888 -0.848668
2004-02-11 08:19:05 51°15.549 2°50.471 13.161497 0.55 3.843667 -0.882377
2004-02-11 08:19:09 51°15.551 2°50.446 13.161497 0.55 3.843667 -0.882377
2004-02-11 08:19:15 51°15.555 2°50.408 13.18787 0.550104 3.842549 -0.882377
2004-02-11 08:19:19 51°15.556 2°50.382 13.208827 0.550104 3.84437 -0.848668
2004-02-11 08:19:25 51°15.56 2°50.344 13.191043 0.550209 3.846137 -0.848668
2004-02-11 08:19:30 51°15.562 2°50.313 13.186887 0.550209 3.84401 -0.848668
2004-02-11 08:19:35 51°15.565 2°50.281 13.225534 0.550313 3.84608 -0.882377
2004-02-11 08:19:39 51°15.567 2°50.256 13.225534 0.550313 3.84608 -0.882377
2004-02-11 08:19:45 51°15.57 2°50.218 13.170483 0.550313 3.844789 -0.882377
2004-02-11 08:19:50 51°15.573 2°50.186 13.183759 0.550313 3.843878 -0.882377
2004-02-11 08:19:55 51°15.575 2°50.154 13.228214 0.550313 3.84441 -0.848668
2004-02-11 08:20:00 51°15.578 2°50.123 13.185189 0.550418 3.845416 -0.848668
2004-02-11 08:20:05 51°15.58 2°50.091 13.19721 0.550418 3.845188 -0.848668
2004-02-11 08:20:10 51°15.583 2°50.059 13.19721 0.550418 3.845188 -0.848668
2004-02-11 08:20:15 51°15.585 2°50.028 13.189166 0.550522 3.846726 -0.882377
2004-02-11 08:20:20 51°15.587 2°49.996 13.217137 0.550522 3.847714 -0.848668
2004-02-11 08:20:25 51°15.59 2°49.964 13.211508 0.550522 3.845967 -0.882377
2004-02-11 08:20:30 51°15.591 2°49.932 13.221514 0.550626 3.847049 -0.848668
2004-02-11 08:20:35 51°15.593 2°49.901 13.192652 0.550731 3.846765 -0.848668
2004-02-11 08:20:39 51°15.594 2°49.875 13.192652 0.550731 3.846765 -0.848668
2004-02-11 08:20:45 51°15.596 2°49.837 13.192071 0.550731 3.846537 -0.848668
2004-02-11 08:20:50 51°15.597 2°49.805 13.219325 0.550835 3.849443 -0.848668
2004-02-11 08:20:55 51°15.599 2°49.773 13.179021 0.550835 3.849063 -0.882377
2004-02-11 08:20:59 51°15.6 2°49.747 13.199846 0.550939 3.849386 -0.848668
2004-02-11 08:21:05 51°15.602 2°49.709 13.224864 0.550939 3.849462 -0.882377
2004-02-11 08:21:10 51°15.604 2°49.677 13.224864 0.550939 3.849462 -0.882377
2004-02-11 08:21:15 51°15.605 2°49.645 13.2078 0.550835 3.849519 -0.882377
2004-02-11 08:21:20 51°15.607 2°49.614 13.209989 0.550939 3.849994 -0.848668
2004-02-11 08:21:25 51°15.608 2°49.582 13.196495 0.550939 3.850374 -0.882377
2004-02-11 08:21:30 51°15.61 2°49.55 13.192652 0.551044 3.851305 -0.882377
2004-02-11 08:21:35 51°15.612 2°49.518 13.20637 0.550939 3.852429 -0.882377
2004-02-11 08:21:40 51°15.613 2°49.487 13.20637 0.550939 3.852429 -0.882377
2004-02-11 08:21:45 51°15.615 2°49.455 13.221157 0.550939 3.850374 -0.882377
2004-02-11 08:21:50 51°15.616 2°49.424 13.200829 0.551044 3.851686 -0.882377
2004-02-11 08:21:55 51°15.618 2°49.392 13.194216 0.550939 3.852885 -0.848668
2004-02-11 08:21:59 51°15.619 2°49.367 13.240898 0.551148 3.854368 -0.882377
2004-02-11 08:22:04 51°15.621 2°49.335 13.183803 0.551148 3.854216 -0.848668
2004-02-11 08:22:10 51°15.623 2°49.298 13.183803 0.551148 3.854216 -0.848668
2004-02-11 08:22:15 51°15.624 2°49.266 13.228214 0.551253 3.854538 -0.848668
2004-02-11 08:22:19 51°15.626 2°49.241 13.202974 0.551357 3.855699 -0.848668
2004-02-11 08:22:25 51°15.627 2°49.203 13.216645 0.551461 3.856554 -0.848668
2004-02-11 08:22:30 51°15.629 2°49.172 13.212491 0.551461 3.856478 -0.848668
2004-02-11 08:22:35 51°15.631 2°49.14 13.21401 0.551566 3.857868 -0.882377
2004-02-11 08:22:40 51°15.633 2°49.109 13.21401 0.551566 3.857868 -0.882377
2004-02-11 08:22:45 51°15.634 2°49.078 13.227544 0.551566 3.856496 -0.848668
2004-02-11 08:22:50 51°15.636 2°49.046 13.204449 0.551566 3.856191 -0.882377
2004-02-11 08:22:55 51°15.638 2°49.015 13.234288 0.551566 3.856572 -0.848668
2004-02-11 08:22:59 51°15.64 2°48.989 13.221291 0.55167 3.858419 -0.848668
2004-02-11 08:23:05 51°15.642 2°48.952 13.200964 0.551566 3.857258 -0.814958
2004-02-11 08:23:09 51°15.643 2°48.927 13.200964 0.551566 3.857258 -0.814958
2004-02-11 08:23:15 51°15.646 2°48.888 13.204583 0.551566 3.85741 -0.848668
2004-02-11 08:23:21 51°15.648 2°48.851 13.219459 0.55167 3.857809 -0.882377
2004-02-11 08:23:25 51°15.65 2°48.826 13.222542 0.551775 3.861259 -0.882377
2004-02-11 08:23:30 51°15.651 2°48.794 13.24447 0.551774 3.858817 -0.848668
2004-02-11 08:23:35 51°15.653 2°48.763 13.244604 0.551774 3.85958 -0.882377
2004-02-11 08:23:39 51°15.654 2°48.737 13.244604 0.551774 3.85958 -0.882377
2004-02-11 08:23:45 51°15.657 2°48.699 13.202795 0.551775 3.860267 -0.848668
2004-02-11 08:23:50 51°15.659 2°48.667 13.2208 0.551774 3.859122 -0.882377
2004-02-11 08:23:55 51°15.661 2°48.636 13.229911 0.551983 3.863507 -0.848668
2004-02-11 08:23:59 51°15.662 2°48.611 13.231564 0.551879 3.861886 -0.882377
2004-02-11 08:24:05 51°15.665 2°48.572 13.229956 0.552088 3.863141 -0.848668
2004-02-11 08:24:10 51°15.666 2°48.54 13.229956 0.552088 3.863141 -0.848668
2004-02-11 08:24:15 51°15.668 2°48.509 13.205923 0.551983 3.862514 -0.848668
2004-02-11 08:24:19 51°15.67 2°48.483 13.216869 0.552088 3.863523 -0.848668
2004-02-11 08:24:25 51°15.672 2°48.445 13.236298 0.551983 3.862972 -0.848668
2004-02-11 08:24:30 51°15.675 2°48.413 13.217941 0.552296 3.867225 -0.848668
2004-02-11 08:24:35 51°15.677 2°48.381 13.209051 0.551983 3.864424 -0.848668
2004-02-11 08:24:40 51°15.678 2°48.349 13.209051 0.551983 3.864424 -0.848668
2004-02-11 08:24:45 51°15.681 2°48.318 13.222318 0.551983 3.862361 -0.848668
2004-02-11 08:24:50 51°15.682 2°48.286 13.250944 0.552296 3.866613 -0.848668
2004-02-11 08:24:55 51°15.684 2°48.254 13.213786 0.552401 3.87015 -0.882377
2004-02-11 08:24:59 51°15.686 2°48.229 13.206638 0.552401 3.87084 -0.814958
2004-02-11 08:25:05 51°15.687 2°48.19 13.21392 0.552296 3.866536 -0.882377
2004-02-11 08:25:10 51°15.689 2°48.158 13.21392 0.552296 3.866536 -0.882377
2004-02-11 08:25:15 51°15.691 2°48.126 13.220264 0.552296 3.866383 -0.882377
2004-02-11 08:25:19 51°15.693 2°48.101 13.231341 0.552296 3.867072 -0.882377
2004-02-11 08:25:25 51°15.695 2°48.062 13.247238 0.552401 3.866857 -0.882377
2004-02-11 08:25:29 51°15.696 2°48.037 13.252016 0.552505 3.868327 -0.848668
2004-02-11 08:25:35 51°15.699 2°47.998 13.216913 0.552296 3.86799 -0.814958
2004-02-11 08:25:40 51°15.7 2°47.966 13.216913 0.552296 3.86799 -0.814958
2004-02-11 08:25:45 51°15.702 2°47.934 13.219996 0.552401 3.867393 -0.882377
2004-02-11 08:25:50 51°15.704 2°47.902 13.247328 0.552505 3.867638 -0.848668
2004-02-11 08:25:55 51°15.706 2°47.87 13.219772 0.55261 3.871176 -0.848668
2004-02-11 08:25:59 51°15.707 2°47.844 13.231117 0.552401 3.867087 -0.848668
2004-02-11 08:26:05 51°15.71 2°47.805 13.23076 0.552401 3.867623 -0.848668
2004-02-11 08:26:10 51°15.712 2°47.774 13.23076 0.552401 3.867623 -0.848668
2004-02-11 08:26:15 51°15.713 2°47.741 13.224998 0.55261 3.871789 -0.848668
2004-02-11 08:26:19 51°15.715 2°47.716 13.221202 0.552401 3.867776 -0.882377
2004-02-11 08:26:25 51°15.717 2°47.677 13.22817 0.552505 3.869169 -0.882377
2004-02-11 08:26:30 51°15.719 2°47.644 13.235226 0.55261 3.870639 -0.882377
2004-02-11 08:26:35 51°15.721 2°47.612 13.244783 0.55261 3.871482 -0.848668
2004-02-11 08:26:39 51°15.722 2°47.587 13.244783 0.55261 3.871482 -0.848668
2004-02-11 08:26:45 51°15.724 2°47.548 13.220576 0.55261 3.871789 -0.848668
2004-02-11 08:26:50 51°15.726 2°47.516 13.226249 0.55261 3.870026 -0.848668
2004-02-11 08:26:55 51°15.728 2°47.484 13.233172 0.552505 3.869322 -0.848668
2004-02-11 08:26:59 51°15.73 2°47.458 13.221023 0.552505 3.869628 -0.848668
2004-02-11 08:27:05 51°15.732 2°47.42 13.234199 0.552505 3.869475 -0.848668
2004-02-11 08:27:10 51°15.734 2°47.388 13.234199 0.552505 3.869475 -0.848668
2004-02-11 08:27:15 51°15.735 2°47.356 13.24572 0.552401 3.868005 -0.848668
2004-02-11 08:27:19 51°15.737 2°47.33 13.228795 0.552192 3.867975 -0.882377
2004-02-11 08:27:25 51°15.738 2°47.291 13.255498 0.552714 3.872417 -0.848668
2004-02-11 08:27:30 51°15.741 2°47.259 13.22415 0.552296 3.867301 -0.882377
2004-02-11 08:27:35 51°15.742 2°47.227 13.229822 0.552192 3.867822 -0.882377
2004-02-11 08:27:41 51°15.744 2°47.189 13.254606 0.552505 3.871851 -0.882377
2004-02-11 08:27:45 51°15.746 2°47.163 13.254606 0.552505 3.871851 -0.882377
2004-02-11 08:27:50 51°15.747 2°47.131 13.237906 0.552401 3.869384 -0.848668
2004-02-11 08:27:55 51°15.749 2°47.099 13.239647 0.552401 3.871147 -0.882377
2004-02-11 08:27:59 51°15.75 2°47.073 13.261079 0.55261 3.872019 -0.848668
2004-02-11 08:28:05 51°15.751 2°47.035 13.249471 0.552505 3.871238 -0.848668
2004-02-11 08:28:10 51°15.751 2°47.002 13.249471 0.552505 3.871238 -0.848668
2004-02-11 08:28:15 51°15.752 2°46.97 13.265677 0.552818 3.878191 -0.882377
2004-02-11 08:28:19 51°15.754 2°46.945 13.224373 0.552714 3.87211 -0.882377
2004-02-11 08:28:25 51°15.754 2°46.907 13.25273 0.553131 3.876769 -0.848668
2004-02-11 08:28:30 51°15.756 2°46.875 13.243443 0.552923 3.874899 -0.848668
2004-02-11 08:28:35 51°15.756 2°46.844 13.242729 0.552923 3.877819 -0.848668
2004-02-11 08:28:40 51°15.758 2°46.812 13.242729 0.552923 3.877819 -0.848668
2004-02-11 08:28:45 51°15.758 2°46.78 13.259204 0.553132 3.88046 -0.882377
2004-02-11 08:28:50 51°15.759 2°46.748 13.25215 0.552714 3.87564 -0.882377
2004-02-11 08:28:55 51°15.76 2°46.716 13.233842 0.553027 3.875527 -0.882377
2004-02-11 08:28:59 51°15.76 2°46.691 13.256525 0.552923 3.874746 -0.882377
2004-02-11 08:29:05 51°15.762 2°46.652 13.237548 0.553027 3.876679 -0.882377
2004-02-11 08:29:10 51°15.763 2°46.62 13.237548 0.553027 3.876679 -0.882377
2004-02-11 08:29:15 51°15.764 2°46.589 13.242952 0.552923 3.877281 -0.882377
2004-02-11 08:29:21 51°15.765 2°46.55 13.239871 0.552923 3.874516 -0.882377
2004-02-11 08:29:25 51°15.766 2°46.525 13.248757 0.553132 3.879229 -0.848668
2004-02-11 08:29:30 51°15.767 2°46.493 13.249694 0.553027 3.878139 -0.848668
2004-02-11 08:29:35 51°15.768 2°46.461 13.246881 0.552923 3.876666 -0.848668
2004-02-11 08:29:39 51°15.769 2°46.435 13.246881 0.552923 3.876666 -0.848668
2004-02-11 08:29:45 51°15.77 2°46.397 13.247328 0.553236 3.881627 -0.848668
2004-02-11 08:29:50 51°15.771 2°46.365 13.242996 0.553132 3.880383 -0.882377
2004-02-11 08:29:55 51°15.772 2°46.333 13.256391 0.553445 3.882113 -0.848668
2004-02-11 08:30:00 51°15.773 2°46.301 13.272863 0.55334 3.8801 -0.882377
2004-02-11 08:30:05 51°15.774 2°46.269 13.240987 0.55334 3.881947 -0.848668
2004-02-11 08:30:10 51°15.775 2°46.237 13.240987 0.55334 3.881947 -0.848668
2004-02-11 08:30:15 51°15.776 2°46.205 13.255722 0.553132 3.878383 -0.848668
2004-02-11 08:30:19 51°15.778 2°46.18 13.259427 0.55334 3.879715 -0.848668
2004-02-11 08:30:25 51°15.779 2°46.141 13.251168 0.55334 3.883873 -0.882377
2004-02-11 08:30:30 51°15.779 2°46.109 13.252998 0.552923 3.876896 -0.848668
2004-02-11 08:30:35 51°15.78 2°46.077 13.268712 0.553862 3.8874 -0.848668
2004-02-11 08:30:39 51°15.781 2°46.051 13.268712 0.553862 3.8874 -0.848668
2004-02-11 08:30:45 51°15.782 2°46.013 13.2559 0.55334 3.88341 -0.814958
2004-02-11 08:30:49 51°15.783 2°45.987 13.24956 0.553236 3.880087 -0.848668
2004-02-11 08:30:55 51°15.784 2°45.949 13.263757 0.553445 3.88427 -0.882377
2004-02-11 08:31:00 51°15.785 2°45.916 13.265186 0.553653 3.887455 -0.848668
2004-02-11 08:31:05 51°15.786 2°45.885 13.256525 0.553445 3.883576 -0.848668
2004-02-11 08:31:10 51°15.787 2°45.853 13.275854 0.553758 3.887234 -0.882377
2004-02-11 08:31:15 51°15.788 2°45.82 13.275854 0.553758 3.887234 -0.882377
2004-02-11 08:31:20 51°15.79 2°45.788 13.253668 0.553445 3.882498 -0.882377
2004-02-11 08:31:25 51°15.79 2°45.756 13.265945 0.553445 3.886121 -0.882377
2004-02-11 08:31:30 51°15.792 2°45.725 13.256481 0.553758 3.884921 -0.882377
2004-02-11 08:31:35 51°15.792 2°45.692 13.269471 0.553549 3.887444 -0.882377
2004-02-11 08:31:39 51°15.793 2°45.666 13.269471 0.553549 3.887444 -0.882377
2004-02-11 08:31:45 51°15.794 2°45.628 13.263088 0.553653 3.884987 -0.848668
2004-02-11 08:31:50 51°15.796 2°45.596 13.256704 0.553445 3.885966 -0.882377
2004-02-11 08:31:55 51°15.797 2°45.565 13.274113 0.553862 3.886782 -0.882377
2004-02-11 08:31:59 51°15.797 2°45.539 13.279067 0.553862 3.890488 -0.882377
2004-02-11 08:32:05 51°15.8 2°45.5 13.266838 0.553549 3.883819 -0.882377
2004-02-11 08:32:10 51°15.8 2°45.468 13.266838 0.553549 3.883819 -0.882377
2004-02-11 08:32:15 51°15.803 2°45.437 13.263624 0.55334 3.885569 -0.848668
2004-02-11 08:32:19 51°15.804 2°45.411 13.276434 0.553758 3.887929 -0.882377
2004-02-11 08:32:25 51°15.806 2°45.372 13.267284 0.553549 3.887444 -0.848668
2004-02-11 08:32:30 51°15.808 2°45.341 13.278264 0.55428 3.894626 -0.848668
2004-02-11 08:32:35 51°15.81 2°45.31 13.264516 0.553758 3.890014 -0.882377
2004-02-11 08:32:41 51°15.812 2°45.272 13.264516 0.553758 3.890014 -0.882377
2004-02-11 08:32:45 51°15.814 2°45.246 13.264427 0.553967 3.891116 -0.848668
2004-02-11 08:32:50 51°15.815 2°45.214 13.272819 0.553654 3.88869 -0.882377
2004-02-11 08:32:55 51°15.818 2°45.183 13.256168 0.553862 3.890333 -0.848668
2004-02-11 08:33:00 51°15.82 2°45.151 13.281477 0.553967 3.892199 -0.882377
2004-02-11 08:33:05 51°15.822 2°45.12 13.267775 0.553653 3.888304 -0.848668
2004-02-11 08:33:10 51°15.825 2°45.088 13.267775 0.553653 3.888304 -0.848668
2004-02-11 08:33:15 51°15.827 2°45.057 13.27331 0.553967 3.892817 -0.882377
2004-02-11 08:33:19 51°15.828 2°45.032 13.288216 0.553758 3.888083 -0.882377
2004-02-11 08:33:25 51°15.831 2°44.995 13.28652 0.553862 3.890874 -0.848668
2004-02-11 08:33:30 51°15.832 2°44.964 13.283173 0.554175 3.893997 -0.848668
2004-02-11 08:33:35 51°15.834 2°44.932 13.272819 0.553758 3.889782 -0.814958
2004-02-11 08:33:39 51°15.836 2°44.907 13.272819 0.553758 3.889782 -0.814958
2004-02-11 08:33:45 51°15.839 2°44.869 13.281433 0.553862 3.887014 -0.848668
2004-02-11 08:33:49 51°15.841 2°44.844 13.278041 0.553758 3.88901 -0.848668
2004-02-11 08:33:55 51°15.846 2°44.807 13.279246 0.554071 3.892673 -0.882377
2004-02-11 08:33:59 51°15.848 2°44.781 13.28594 0.554071 3.891513 -0.882377
2004-02-11 08:34:05 51°15.853 2°44.744 13.277639 0.553758 3.890709 -0.882377
2004-02-11 08:34:09 51°15.856 2°44.719 13.277639 0.553758 3.890709 -0.882377
2004-02-11 08:34:15 51°15.861 2°44.681 13.291697 0.553967 3.892276 -0.882377
2004-02-11 08:34:19 51°15.865 2°44.657 13.296248 0.554071 3.893369 -0.848668
2004-02-11 08:34:25 51°15.87 2°44.62 13.28054 0.553967 3.891657 -0.848668
2004-02-11 08:34:30 51°15.873 2°44.589 13.283843 0.553758 3.890632 -0.848668
2004-02-11 08:34:34 51°15.877 2°44.564 13.272819 0.553862 3.890488 -0.882377
2004-02-11 08:34:39 51°15.881 2°44.533 13.272819 0.553862 3.890488 -0.882377
2004-02-11 08:34:45 51°15.885 2°44.495 13.296203 0.55428 3.895322 -0.882377
2004-02-11 08:34:49 51°15.889 2°44.471 13.273756 0.554593 3.897208 -0.848668
2004-02-11 08:34:55 51°15.894 2°44.434 13.290983 0.553758 3.893262 -0.848668
2004-02-11 08:34:59 51°15.897 2°44.409 13.276657 0.553654 3.889231 -0.848668
2004-02-11 08:35:05 51°15.902 2°44.373 13.283396 0.554384 3.897733 -0.882377
2004-02-11 08:35:10 51°15.906 2°44.341 13.283396 0.554384 3.897733 -0.882377
2004-02-11 08:35:15 51°15.911 2°44.31 13.287413 0.554071 3.894839 -0.848668
2004-02-11 08:35:19 51°15.915 2°44.286 13.271257 0.553758 3.890246 -0.848668
2004-02-11 08:35:25 51°15.923 2°44.251 13.277907 0.553862 3.891183 -0.882377
2004-02-11 08:35:30 51°15.931 2°44.223 13.288885 0.55334 3.889277 -0.882377
2004-02-11 08:35:35 51°15.939 2°44.195 13.280406 0.553549 3.88837 -0.848668
2004-02-11 08:35:40 51°15.949 2°44.168 13.280406 0.553549 3.88837 -0.848668
2004-02-11 08:35:45 51°15.959 2°44.142 13.281567 0.553549 3.889375 -0.848668
2004-02-11 08:35:49 51°15.969 2°44.123 13.28179 0.553967 3.892276 -0.848668
2004-02-11 08:35:55 51°15.984 2°44.095 13.289376 0.553654 3.891241 -0.848668
2004-02-11 08:35:59 51°15.994 2°44.077 13.28951 0.553758 3.893417 -0.848668
2004-02-11 08:36:05 51°16.011 2°44.051 13.295623 0.553549 3.89154 -0.848668
2004-02-11 08:36:10 51°16.024 2°44.03 13.295623 0.553549 3.89154 -0.848668
2004-02-11 08:36:15 51°16.039 2°44.009 13.300397 0.553549 3.891772 -0.882377
2004-02-11 08:36:20 51°16.053 2°43.988 13.302806 0.554071 3.896853 -0.882377
2004-02-11 08:36:25 51°16.067 2°43.968 13.295222 0.554071 3.896931 -0.882377
2004-02-11 08:36:30 51°16.082 2°43.95 13.286966 0.554071 3.896931 -0.848668
2004-02-11 08:36:35 51°16.098 2°43.933 13.288707 0.553445 3.888282 -0.848668
2004-02-11 08:36:40 51°16.114 2°43.917 13.288707 0.553445 3.888282 -0.848668
2004-02-11 08:36:45 51°16.131 2°43.903 13.295712 0.554071 3.896388 -0.848668
2004-02-11 08:36:50 51°16.147 2°43.888 13.312844 0.553549 3.893011 -0.882377
2004-02-11 08:36:55 51°16.163 2°43.873 13.296292 0.553758 3.895664 -0.882377
2004-02-11 08:36:59 51°16.175 2°43.859 13.306955 0.554593 3.902948 -0.882377
2004-02-11 08:37:05 51°16.194 2°43.84 13.310747 0.55428 3.899275 -0.848668
2004-02-11 08:37:09 51°16.207 2°43.826 13.310747 0.55428 3.899275 -0.848668
2004-02-11 08:37:15 51°16.226 2°43.806 13.297497 0.55428 3.902459 -0.848668
2004-02-11 08:37:19 51°16.238 2°43.792 13.300977 0.553967 3.898706 -0.848668
2004-02-11 08:37:25 51°16.257 2°43.772 13.303966 0.55428 3.900827 -0.848668
2004-02-11 08:37:30 51°16.273 2°43.754 13.05917 0.554593 3.903103 -0.814958
2004-02-11 08:37:35 51°16.289 2°43.737 8.994612 0.864042 6.242994 -0.680121
2004-02-11 08:37:39 51°16.301 2°43.723 8.994612 0.864042 6.242994 -0.680121
2004-02-11 08:37:45 51°16.321 2°43.703 8.319768 0.503666 3.50573 -0.646411
2004-02-11 08:37:49 51°16.333 2°43.689 8.11734 0.887257 6.430417 -0.578993
2004-02-11 08:37:55 51°16.352 2°43.669 8.323474 1.14698 8.467484 -0.309317
2004-02-11 08:38:00 51°16.368 2°43.652 7.968015 1.338143 9.957485 6.837076
2004-02-11 08:38:05 51°16.384 2°43.635 7.841769 1.846624 14.041871 6.365144
2004-02-11 08:38:09 51°16.396 2°43.622 7.841769 1.846624 14.041871 6.365144
2004-02-11 08:38:15 51°16.415 2°43.601 7.791463 2.254162 17.526912 5.623537
2004-02-11 08:38:19 51°16.428 2°43.587 7.713574 2.789322 22.254419 5.589828
2004-02-11 08:38:25 51°16.447 2°43.567 7.67508 2.95276 23.921268 5.893212
2004-02-11 08:38:29 51°16.459 2°43.554 7.670801 3.152054 26.326613 3.499845
2004-02-11 08:38:35 51°16.478 2°43.534 7.636319 3.23967 27.441049 3.23017
2004-02-11 08:38:40 51°16.494 2°43.518 7.636319 3.23967 27.441049 3.23017
2004-02-11 08:38:45 51°16.51 2°43.502 7.626492 3.485615 29.650877 0.634546
2004-02-11 08:38:49 51°16.523 2°43.488 7.610385 3.525345 30.820458 2.690819
2004-02-11 08:38:55 51°16.541 2°43.47 7.474459 3.402096 30.243622 5.4887
2004-02-11 08:39:00 51°16.557 2°43.454 7.351194 3.601541 32.924255 4.780802
2004-02-11 08:39:05 51°16.573 2°43.439 7.404435 3.614193 33.614438 3.567264
2004-02-11 08:39:09 51°16.586 2°43.427 7.404435 3.614193 33.614438 3.567264
2004-02-11 08:39:15 51°16.605 2°43.409 7.354712 3.612828 34.019489 3.263879
2004-02-11 08:39:19 51°16.618 2°43.397 7.285975 3.537709 33.807761 2.387435
2004-02-11 08:39:25 51°16.637 2°43.38 7.258773 3.536343 34.096596 2.050341
2004-02-11 08:39:29 51°16.65 2°43.367 7.24037 3.495466 33.800851 2.185178
2004-02-11 08:39:35 51°16.669 2°43.35 7.253683 3.503474 33.980377 2.016631
2004-02-11 08:39:39 51°16.682 2°43.337 7.253683 3.503474 33.980377 2.016631
2004-02-11 08:39:45 51°16.702 2°43.319 7.22632 3.453116 33.494064 1.881794
2004-02-11 08:39:50 51°16.718 2°43.304 7.231167 3.50769 34.161414 2.117759
2004-02-11 08:39:55 51°16.734 2°43.289 7.231118 3.509586 34.211882 2.252597
2004-02-11 08:39:59 51°16.748 2°43.277 7.214471 3.502212 34.161069 2.218888
2004-02-11 08:40:05 51°16.767 2°43.26 7.206097 3.482616 33.966907 2.117759
2004-02-11 08:40:09 51°16.781 2°43.249 7.206097 3.482616 33.966907 2.117759
2004-02-11 08:40:15 51°16.8 2°43.232 7.150485 3.497366 34.14179 2.185178
2004-02-11 08:40:19 51°16.814 2°43.221 7.158817 3.499368 34.179341 2.218888
2004-02-11 08:40:25 51°16.834 2°43.204 7.184935 3.487147 34.058333 2.08405
2004-02-11 08:40:29 51°16.847 2°43.193 7.141857 3.489675 34.089105 2.252597
2004-02-11 08:40:35 51°16.866 2°43.176 7.140827 3.468921 33.89367 2.117759
2004-02-11 08:40:40 51°16.883 2°43.162 7.140827 3.468921 33.89367 2.117759
2004-02-11 08:40:45 51°16.899 2°43.148 7.133277 3.4212 33.397388 2.218888
2004-02-11 08:40:49 51°16.913 2°43.137 7.147691 3.480721 34.044244 2.151469
2004-02-11 08:40:55 51°16.932 2°43.119 7.127785 3.486094 34.11182 2.151469
2004-02-11 08:41:00 51°16.949 2°43.104 7.133914 3.485673 34.124758 2.252597
2004-02-11 08:41:05 51°16.965 2°43.089 7.15073 3.477245 34.043072 2.08405
2004-02-11 08:41:09 51°16.979 2°43.078 7.15073 3.477245 34.043072 2.08405
2004-02-11 08:41:15 51°16.998 2°43.061 7.180183 3.484093 34.118416 2.050341
2004-02-11 08:41:19 51°17.011 2°43.05 7.149259 3.470502 33.974721 2.08405
2004-02-11 08:41:25 51°17.031 2°43.033 7.163522 3.479879 34.082569 2.016631
2004-02-11 08:41:30 51°17.048 2°43.02 7.135532 3.488518 34.174937 2.117759
2004-02-11 08:41:35 51°17.065 2°43.007 7.136023 3.486937 34.146867 2.08405
2004-02-11 08:41:39 51°17.078 2°42.997 7.136023 3.486937 34.146867 2.08405
2004-02-11 08:41:45 51°17.098 2°42.982 7.144504 3.46218 33.87758 1.881794
2004-02-11 08:41:50 51°17.115 2°42.969 7.153181 3.485251 34.123512 2.08405
2004-02-11 08:41:55 51°17.131 2°42.956 7.154651 3.479036 34.068392 2.151469
2004-02-11 08:41:59 51°17.145 2°42.945 7.154259 3.474295 34.027637 1.915503
2004-02-11 08:42:05 51°17.165 2°42.929 7.167149 3.478088 34.068915 2.151469
2004-02-11 08:42:10 51°17.181 2°42.915 7.174107 3.487991 34.171712 1.949212
2004-02-11 08:42:15 51°17.198 2°42.901 7.174107 3.487991 34.171712 1.949212
2004-02-11 08:42:19 51°17.211 2°42.89 7.177341 3.450275 33.758942 2.016631
2004-02-11 08:42:25 51°17.231 2°42.873 7.168374 3.445429 33.707105 2.185178
2004-02-11 08:42:30 51°17.248 2°42.859 7.176802 3.448274 33.732236 2.016631
2004-02-11 08:42:35 51°17.264 2°42.845 7.186013 3.484514 34.121332 1.949212
2004-02-11 08:42:40 51°17.281 2°42.831 7.186013 3.484514 34.121332 1.949212
2004-02-11 08:42:45 51°17.298 2°42.817 7.209868 3.485251 34.126017 1.982922
2004-02-11 08:42:50 51°17.315 2°42.803 7.224313 3.486516 34.143116 2.117759
2004-02-11 08:42:55 51°17.332 2°42.789 7.203599 3.475454 34.020259 2.016631
2004-02-11 08:42:59 51°17.347 2°42.778 7.195615 3.476929 34.028809 2.117759
2004-02-11 08:43:05 51°17.368 2°42.761 7.20017 3.491362 34.177465 2.117759
2004-02-11 08:43:10 51°17.386 2°42.747 7.20017 3.491362 34.177465 2.117759
2004-02-11 08:43:15 51°17.404 2°42.733 7.196888 3.473979 33.98177 2.185178
2004-02-11 08:43:19 51°17.418 2°42.722 7.199974 3.479035 34.035906 2.151469
2004-02-11 08:43:25 51°17.439 2°42.705 7.203452 3.468606 33.926698 2.117759
2004-02-11 08:43:30 51°17.457 2°42.691 7.19777 3.483039 34.084432 2.286306
2004-02-11 08:43:35 51°17.475 2°42.678 7.209868 3.489887 34.159748 2.218888
2004-02-11 08:43:39 51°17.49 2°42.667 7.209868 3.489887 34.159748 2.218888
2004-02-11 08:43:45 51°17.511 2°42.652 7.201542 3.495997 34.225393 2.08405
2004-02-11 08:43:50 51°17.528 2°42.64 7.205117 3.480089 34.049025 2.218888
2004-02-11 08:43:55 51°17.546 2°42.628 7.215842 3.494628 34.207981 2.151469
2004-02-11 08:43:59 51°17.56 2°42.619 7.219368 3.48799 34.131608 2.252597
2004-02-11 08:44:05 51°17.581 2°42.604 7.202864 3.474295 33.983543 2.387435
2004-02-11 08:44:10 51°17.598 2°42.593 7.202864 3.474295 33.983543 2.387435
2004-02-11 08:44:15 51°17.615 2°42.581 7.202374 3.487674 34.129005 2.353725
2004-02-11 08:44:19 51°17.629 2°42.572 7.206733 3.488728 34.137959 2.218888
2004-02-11 08:44:25 51°17.649 2°42.559 7.211582 3.475137 33.986887 2.08405
2004-02-11 08:44:30 51°17.667 2°42.548 7.200317 3.495154 34.207021 2.286306
2004-02-11 08:44:35 51°17.684 2°42.536 7.207174 3.44406 33.656806 2.320016
2004-02-11 08:44:39 51°17.697 2°42.527 7.207174 3.44406 33.656806 2.320016
2004-02-11 08:44:45 51°17.718 2°42.514 7.210161 3.500106 34.265917 2.421144
2004-02-11 08:44:50 51°17.735 2°42.503 7.19248 3.492837 34.186824 2.252597
2004-02-11 08:44:55 51°17.752 2°42.491 7.196399 3.479457 34.040488 2.387435
2004-02-11 08:45:00 51°17.769 2°42.48 7.196888 3.487885 34.137139 2.387435
2004-02-11 08:45:05 51°17.786 2°42.469 7.203697 3.489149 34.152561 2.387435
2004-02-11 08:45:09 51°17.801 2°42.459 7.203697 3.489149 34.152561 2.387435
2004-02-11 08:45:15 51°17.822 2°42.445 7.194194 3.477877 34.035791 2.185178
2004-02-11 08:45:19 51°17.836 2°42.436 7.200905 3.486832 34.136532 2.252597
2004-02-11 08:45:25 51°17.856 2°42.423 7.187826 3.431208 33.524726 2.320016
2004-02-11 08:45:29 51°17.87 2°42.413 7.197672 3.482723 34.085996 2.320016
2004-02-11 08:45:35 51°17.89 2°42.399 7.194292 3.49231 34.192799 2.488563
2004-02-11 08:45:40 51°17.907 2°42.387 7.194292 3.49231 34.192799 2.488563
2004-02-11 08:45:45 51°17.925 2°42.376 7.201101 3.488728 34.155494 2.286306
2004-02-11 08:45:50 51°17.942 2°42.364 7.200072 3.481775 34.082352 2.387435
2004-02-11 08:45:55 51°17.959 2°42.353 7.200219 3.474295 34.004327 2.286306
2004-02-11 08:45:59 51°17.973 2°42.344 7.197525 3.484198 34.112884 2.286306
2004-02-11 08:46:05 51°17.994 2°42.33 7.203991 3.491678 34.190102 2.454853
2004-02-11 08:46:09 51°18.007 2°42.321 7.193313 3.488201 34.151434 2.353725
2004-02-11 08:46:15 51°18.028 2°42.306 7.193313 3.488201 34.151434 2.353725
2004-02-11 08:46:19 51°18.042 2°42.296 7.19052 3.492205 34.194162 2.555982
2004-02-11 08:46:25 51°18.063 2°42.28 7.186356 3.479668 34.059433 2.387435
2004-02-11 08:46:30 51°18.08 2°42.267 7.193459 3.47124 33.966949 2.454853
2004-02-11 08:46:35 51°18.097 2°42.254 7.202668 3.499263 34.275183 2.387435
2004-02-11 08:46:39 51°18.11 2°42.243 7.202668 3.499263 34.275183 2.387435
2004-02-11 08:46:45 51°18.131 2°42.228 7.198505 3.487148 34.145818 2.353725
2004-02-11 08:46:50 51°18.148 2°42.216 7.198799 3.494417 34.229963 2.286306
2004-02-11 08:46:55 51°18.165 2°42.203 7.201395 3.490624 34.186164 2.454853
2004-02-11 08:46:59 51°18.178 2°42.193 7.204823 3.482512 34.095379 2.454853
2004-02-11 08:47:05 51°18.198 2°42.178 7.202815 3.49663 34.248185 2.286306
2004-02-11 08:47:10 51°18.215 2°42.165 7.202815 3.49663 34.248185 2.286306
2004-02-11 08:47:15 51°18.231 2°42.152 7.195272 3.494733 34.225866 2.488563
2004-02-11 08:47:19 51°18.245 2°42.141 7.196497 3.484409 34.116011 2.421144
2004-02-11 08:47:25 51°18.265 2°42.126 7.195566 3.497262 34.255067 2.387435
2004-02-11 08:47:30 51°18.282 2°42.113 7.205754 3.486516 34.136433 2.387435
2004-02-11 08:47:35 51°18.298 2°42.1 7.194096 3.482723 34.097671 2.454853
2004-02-11 08:47:39 51°18.312 2°42.09 7.194096 3.482723 34.097671 2.454853
2004-02-11 08:47:45 51°18.332 2°42.075 7.197868 3.452172 33.76633 2.387435
2004-02-11 08:47:50 51°18.349 2°42.063 7.196937 3.488201 34.158954 2.387435
2004-02-11 08:47:55 51°18.366 2°42.05 7.19341 3.492942 34.211393 2.421144
2004-02-11 08:47:59 51°18.379 2°42.04 7.193019 3.486621 34.140085 2.320016
2004-02-11 08:48:05 51°18.399 2°42.025 7.194145 3.491151 34.187715 2.252597
2004-02-11 08:48:10 51°18.416 2°42.012 7.194145 3.491151 34.187715 2.252597
2004-02-11 08:48:15 51°18.432 2°42 7.1939 3.452277 33.766649 2.252597
2004-02-11 08:48:20 51°18.449 2°41.988 7.183809 3.48641 34.141969 2.320016
2004-02-11 08:48:25 51°18.466 2°41.977 7.177733 3.483777 34.113307 2.522272
2004-02-11 08:48:29 51°18.48 2°41.969 7.176606 3.497367 34.261244 2.454853
2004-02-11 08:48:35 51°18.5 2°41.957 7.172294 3.48778 34.158547 2.421144
2004-02-11 08:48:39 51°18.513 2°41.949 7.172294 3.48778 34.158547 2.421144
2004-02-11 08:48:45 51°18.534 2°41.938 7.176361 3.488728 34.173885 2.387435
2004-02-11 08:48:50 51°18.551 2°41.929 7.16857 3.499685 34.299913 2.421144
2004-02-11 08:48:55 51°18.568 2°41.92 7.16612 3.476613 34.052028 2.353725
2004-02-11 08:48:59 51°18.582 2°41.913 7.158719 3.490941 34.213045 2.387435
2004-02-11 08:49:05 51°18.603 2°41.901 7.156955 3.4547 33.816967 2.454853
2004-02-11 08:49:10 51°18.62 2°41.891 7.156955 3.4547 33.816967 2.454853
2004-02-11 08:49:15 51°18.638 2°41.882 7.158229 3.482513 34.121259 2.387435
2004-02-11 08:49:19 51°18.652 2°41.874 7.164551 3.496419 34.276084 2.421144
2004-02-11 08:49:25 51°18.673 2°41.863 7.156906 3.489993 34.211933 2.488563
2004-02-11 08:49:30 51°18.691 2°41.853 7.162297 3.488939 34.203807 2.589691
2004-02-11 08:49:35 51°18.708 2°41.843 7.162591 3.489887 34.217491 2.555982
2004-02-11 08:49:39 51°18.722 2°41.835 7.162591 3.489887 34.217491 2.555982
2004-02-11 08:49:45 51°18.743 2°41.823 7.163032 3.489255 34.206412 2.6234
2004-02-11 08:49:49 51°18.758 2°41.816 7.163865 3.496525 34.287309 2.589691
2004-02-11 08:49:55 51°18.779 2°41.804 7.166267 3.487148 34.186806 2.522272
2004-02-11 08:49:59 51°18.793 2°41.796 7.169648 3.489887 34.216652 2.488563
2004-02-11 08:50:05 51°18.814 2°41.784 7.171951 3.482618 34.136617 2.522272
2004-02-11 08:50:10 51°18.832 2°41.774 7.171951 3.482618 34.136617 2.522272
2004-02-11 08:50:15 51°18.849 2°41.766 7.175871 3.491678 34.236169 2.488563
2004-02-11 08:50:20 51°18.867 2°41.756 7.180967 3.485357 34.165619 2.555982
2004-02-11 08:50:25 51°18.884 2°41.746 7.179056 3.496419 34.282801 2.65711
2004-02-11 08:50:29 51°18.899 2°41.738 7.184739 3.501371 34.33509 2.522272
2004-02-11 08:50:35 51°18.919 2°41.727 7.180183 3.493891 34.250212 2.488563
2004-02-11 08:50:40 51°18.936 2°41.717 7.180183 3.493891 34.250212 2.488563
2004-02-11 08:50:45 51°18.954 2°41.707 7.185425 3.502108 34.338923 2.555982
2004-02-11 08:50:50 51°18.971 2°41.697 7.177929 3.502741 34.341608 2.488563
2004-02-11 08:50:55 51°18.989 2°41.688 7.18469 3.484409 34.140236 2.488563
2004-02-11 08:50:59 51°19.002 2°41.681 7.197182 3.491257 34.212299 2.522272
2004-02-11 08:51:05 51°19.023 2°41.671 7.204627 3.49821 34.288882 2.488563
2004-02-11 08:51:10 51°19.04 2°41.664 7.204627 3.49821 34.288882 2.488563
2004-02-11 08:51:15 51°19.057 2°41.655 7.214128 3.504215 34.356 2.387435
2004-02-11 08:51:20 51°19.074 2°41.649 7.223823 3.479457 34.085492 2.320016
2004-02-11 08:51:25 51°19.09 2°41.641 7.229845 3.503899 34.344146 2.421144
2004-02-11 08:51:30 51°19.107 2°41.634 7.223383 3.491362 34.199212 2.421144
2004-02-11 08:51:35 51°19.125 2°41.627 7.227936 3.488517 34.160722 2.488563
2004-02-11 08:51:41 51°19.145 2°41.619 7.227936 3.488517 34.160722 2.488563
2004-02-11 08:51:45 51°19.159 2°41.613 7.226124 3.496946 34.241573 2.387435
2004-02-11 08:51:50 51°19.177 2°41.607 7.22681 3.490835 34.174242 2.488563
2004-02-11 08:51:55 51°19.194 2°41.599 7.227887 3.493785 34.202157 2.421144
2004-02-11 08:52:00 51°19.212 2°41.592 7.23244 3.497683 34.243736 2.353725
2004-02-11 08:52:05 51°19.23 2°41.585 7.234251 3.499369 34.259567 2.353725
2004-02-11 08:52:09 51°19.244 2°41.579 7.234251 3.499369 34.259567 2.353725
2004-02-11 08:52:15 51°19.266 2°41.57 7.235279 3.495471 34.217988 2.421144
2004-02-11 08:52:19 51°19.28 2°41.564 7.2343 3.493153 34.195279 2.387435
2004-02-11 08:52:25 51°19.301 2°41.554 7.241496 3.505901 34.328141 2.218888
2004-02-11 08:52:30 51°19.319 2°41.547 7.242524 3.48641 34.116925 2.286306
2004-02-11 08:52:35 51°19.337 2°41.539 7.239294 3.494312 34.198689 2.387435
2004-02-11 08:52:39 51°19.351 2°41.533 7.239294 3.494312 34.198689 2.387435
2004-02-11 08:52:45 51°19.372 2°41.524 7.239245 3.46081 33.836202 2.286306
2004-02-11 08:52:49 51°19.386 2°41.518 7.240126 3.500317 34.262345 2.320016
2004-02-11 08:52:55 51°19.407 2°41.508 7.246685 3.497051 34.225977 2.387435
2004-02-11 08:52:59 51°19.421 2°41.502 7.244531 3.503583 34.29369 2.488563
2004-02-11 08:53:05 51°19.442 2°41.495 7.243846 3.496208 34.215972 2.286306
2004-02-11 08:53:10 51°19.46 2°41.488 7.243846 3.496208 34.215972 2.286306
2004-02-11 08:53:15 51°19.478 2°41.483 7.243307 3.49842 34.239202 2.320016
2004-02-11 08:53:19 51°19.493 2°41.478 7.248985 3.494628 34.194603 2.454853
2004-02-11 08:53:25 51°19.514 2°41.472 7.247027 3.503688 34.292322 2.387435
2004-02-11 08:53:30 51°19.532 2°41.467 7.253194 3.503267 34.286061 2.454853
2004-02-11 08:53:35 51°19.55 2°41.462 7.250845 3.500211 34.2545 2.454853
2004-02-11 08:53:39 51°19.564 2°41.458 7.250845 3.500211 34.2545 2.454853
2004-02-11 08:53:45 51°19.586 2°41.452 7.246929 3.490203 34.143148 2.488563
2004-02-11 08:53:49 51°19.6 2°41.448 7.248398 3.497472 34.219686 2.555982
2004-02-11 08:53:55 51°19.621 2°41.442 7.255298 3.492942 34.170425 2.555982
2004-02-11 08:53:59 51°19.635 2°41.439 7.262785 3.491467 34.15272 2.589691
2004-02-11 08:54:05 51°19.657 2°41.433 7.262932 3.499579 34.243439 2.724529
2004-02-11 08:54:09 51°19.671 2°41.428 7.262932 3.499579 34.243439 2.724529
2004-02-11 08:54:15 51°19.692 2°41.422 7.26533 3.494627 34.190425 2.454853
2004-02-11 08:54:19 51°19.706 2°41.418 7.272327 3.493258 34.174697 2.454853
2004-02-11 08:54:25 51°19.728 2°41.414 7.276974 3.498209 34.223525 2.454853
2004-02-11 08:54:29 51°19.742 2°41.411 7.279371 3.499684 34.234545 2.589691
2004-02-11 08:54:35 51°19.764 2°41.408 7.2826 3.501159 34.248073 2.454853
2004-02-11 08:54:40 51°19.782 2°41.404 7.2826 3.501159 34.248073 2.454853
2004-02-11 08:54:45 51°19.799 2°41.402 7.287051 3.492626 34.149465 2.522272
2004-02-11 08:54:50 51°19.817 2°41.399 7.289203 3.507586 34.308741 2.454853
2004-02-11 08:54:55 51°19.836 2°41.398 7.294584 3.498841 34.209502 2.522272
2004-02-11 08:54:59 51°19.85 2°41.395 7.295268 3.500632 34.226459 2.421144
2004-02-11 08:55:05 51°19.872 2°41.393 7.298203 3.500527 34.222808 2.320016
2004-02-11 08:55:10 51°19.89 2°41.391 7.298203 3.500527 34.222808 2.320016
2004-02-11 08:55:15 51°19.908 2°41.39 7.304658 3.50137 34.228624 2.421144
2004-02-11 08:55:20 51°19.926 2°41.388 7.310086 3.498104 34.188131 2.286306
2004-02-11 08:55:25 51°19.944 2°41.387 7.318104 3.50453 34.255444 2.421144
2004-02-11 08:55:30 51°19.962 2°41.387 7.321771 3.498947 34.193948 2.252597
2004-02-11 08:55:35 51°19.98 2°41.387 7.328663 3.514434 34.357202 2.252597
2004-02-11 08:55:40 51°19.998 2°41.388 7.328663 3.514434 34.357202 2.252597
2004-02-11 08:55:45 51°20.016 2°41.39 7.337119 3.497998 34.176142 2.387435
2004-02-11 08:55:50 51°20.034 2°41.393 7.341078 3.513802 34.340277 2.286306
2004-02-11 08:55:55 51°20.052 2°41.396 7.350119 3.50316 34.218016 2.218888
2004-02-11 08:56:00 51°20.07 2°41.397 7.356813 3.506426 34.249302 2.185178
2004-02-11 08:56:05 51°20.088 2°41.401 7.364777 3.485777 34.01857 2.320016
2004-02-11 08:56:09 51°20.103 2°41.402 7.364777 3.485777 34.01857 2.320016
2004-02-11 08:56:15 51°20.125 2°41.406 7.367122 3.508744 34.260267 2.252597
2004-02-11 08:56:19 51°20.139 2°41.408 7.373033 3.471449 33.850031 2.218888
2004-02-11 08:56:25 51°20.161 2°41.412 7.37655 3.505373 34.212002 2.320016
2004-02-11 08:56:29 51°20.175 2°41.415 7.384609 3.511483 34.273294 2.387435
2004-02-11 08:56:35 51°20.197 2°41.418 7.385732 3.498103 34.120681 2.252597
2004-02-11 08:56:39 51°20.211 2°41.42 7.388614 3.513274 34.280201 2.320016
2004-02-11 08:56:45 51°20.233 2°41.423 7.388614 3.513274 34.280201 2.320016
2004-02-11 08:56:50 51°20.251 2°41.426 7.391641 3.500631 34.13978 2.286306
2004-02-11 08:56:55 51°20.269 2°41.428 7.394815 3.514644 34.285874 2.252597
2004-02-11 08:57:00 51°20.286 2°41.431 7.398429 3.516224 34.298838 2.185178
2004-02-11 08:57:05 51°20.304 2°41.433 7.403605 3.47935 33.893531 2.252597
2004-02-11 08:57:10 51°20.321 2°41.437 7.402628 3.516013 34.288207 2.252597
2004-02-11 08:57:15 51°20.338 2°41.439 7.402628 3.516013 34.288207 2.252597
2004-02-11 08:57:19 51°20.352 2°41.442 7.404581 3.516119 34.28768 2.252597
2004-02-11 08:57:25 51°20.371 2°41.448 7.403556 3.520227 34.331394 2.286306
2004-02-11 08:57:29 51°20.383 2°41.452 7.40087 3.514117 34.260144 2.286306
2004-02-11 08:57:35 51°20.4 2°41.459 7.404337 3.529394 34.423261 2.353725
2004-02-11 08:57:40 51°20.413 2°41.465 7.404337 3.529394 34.423261 2.353725
2004-02-11 08:57:45 51°20.423 2°41.475 7.412099 3.522229 34.344742 2.320016
2004-02-11 08:57:50 51°20.432 2°41.485 7.407071 3.520649 34.325105 2.320016
2004-02-11 08:57:55 51°20.438 2°41.497 7.402872 3.518647 34.304242 2.387435
2004-02-11 08:57:59 51°20.441 2°41.506 7.403897 3.531185 34.438497 2.151469
2004-02-11 08:58:05 51°20.444 2°41.518 7.398478 3.53129 34.437964 2.353725
2004-02-11 08:58:10 51°20.445 2°41.529 7.398478 3.53129 34.437964 2.353725
2004-02-11 08:58:15 51°20.445 2°41.538 7.40087 3.52402 34.354967 2.353725
2004-02-11 08:58:19 51°20.445 2°41.546 7.390372 3.530131 34.422048 2.387435
2004-02-11 08:58:25 51°20.443 2°41.555 7.386367 3.522861 34.344076 2.286306
2004-02-11 08:58:30 51°20.442 2°41.563 7.383486 3.532449 34.453046 2.286306
2004-02-11 08:58:35 51°20.441 2°41.569 7.379578 3.519595 34.31452 2.185178
2004-02-11 08:58:39 51°20.44 2°41.574 7.379578 3.519595 34.31452 2.185178
2004-02-11 08:58:45 51°20.438 2°41.58 7.378894 3.521808 34.345187 2.320016
2004-02-11 08:58:49 51°20.438 2°41.582 7.374791 3.52107 34.339697 2.320016
2004-02-11 08:58:55 51°20.437 2°41.584 7.375915 3.527708 34.416703 2.151469
2004-02-11 08:58:59 51°20.436 2°41.585 7.377673 3.519806 34.333508 2.252597
2004-02-11 08:59:05 51°20.435 2°41.585 7.378357 3.526865 34.414261 2.286306
2004-02-11 08:59:10 51°20.434 2°41.585 7.378357 3.526865 34.414261 2.286306
2004-02-11 08:59:15 51°20.434 2°41.585 7.388907 3.526549 34.413345 2.252597
2004-02-11 08:59:19 51°20.433 2°41.585 7.388028 3.518542 34.327317 2.151469
2004-02-11 08:59:25 51°20.433 2°41.585 7.385244 3.524126 34.390403 1.915503
2004-02-11 08:59:29 51°20.432 2°41.585 7.377576 3.521387 34.359846 2.151469
2004-02-11 08:59:35 51°20.432 2°41.585 7.377918 3.416247 33.219567 2.185178
2004-02-11 08:59:40 51°20.431 2°41.585 7.377918 3.416247 33.219567 2.185178
2004-02-11 08:59:45 51°20.431 2°41.585 7.376794 3.512115 34.256786 2.387435
2004-02-11 08:59:49 51°20.431 2°41.584 7.382558 3.503265 34.15752 2.185178
2004-02-11 08:59:55 51°20.43 2°41.584 7.379529 3.516751 34.307056 2.185178
2004-02-11 08:59:59 51°20.43 2°41.584 7.376306 3.519806 34.342703 2.252597
2004-02-11 09:00:05 51°20.43 2°41.584 7.377087 3.52086 34.354968 2.185178
2004-02-11 09:00:09 51°20.429 2°41.583 7.376257 3.526233 34.411591 2.08405
2004-02-11 09:00:15 51°20.429 2°41.583 7.376257 3.526233 34.411591 2.08405
2004-02-11 09:00:20 51°20.429 2°41.582 7.379676 3.517067 34.31299 2.08405
2004-02-11 09:00:25 51°20.428 2°41.582 7.37738 3.514538 34.28974 2.016631
2004-02-11 09:00:29 51°20.428 2°41.582 7.374401 3.524231 34.393221 2.320016
2004-02-11 09:00:35 51°20.427 2°41.582 7.371909 3.501474 34.145591 2.151469
2004-02-11 09:00:39 51°20.427 2°41.581 7.371909 3.501474 34.145591 2.151469
2004-02-11 09:00:45 51°20.427 2°41.58 7.378797 3.504951 34.179949 2.050341
2004-02-11 09:00:50 51°20.426 2°41.58 7.388809 3.524969 34.397036 2.117759
2004-02-11 09:00:55 51°20.426 2°41.579 7.380067 3.514644 34.285874 2.218888
2004-02-11 09:00:59 51°20.426 2°41.578 7.379627 3.515276 34.292729 2.252597
2004-02-11 09:01:05 51°20.425 2°41.577 7.379676 3.517278 34.315275 2.151469
2004-02-11 09:01:09 51°20.425 2°41.576 7.384316 3.509587 34.228537 2.016631
2004-02-11 09:01:15 51°20.425 2°41.576 7.384316 3.509587 34.228537 2.016631
2004-02-11 09:01:20 51°20.424 2°41.575 7.38119 3.515697 34.2973 2.286306
2004-02-11 09:01:25 51°20.424 2°41.574 7.379578 3.526549 34.411669 2.08405
2004-02-11 09:01:29 51°20.424 2°41.574 7.387246 3.502317 34.155558 2.286306
2004-02-11 09:01:35 51°20.424 2°41.573 7.381483 3.514644 34.28337 2.08405
2004-02-11 09:01:41 51°20.424 2°41.572 7.381483 3.514644 34.28337 2.08405
2004-02-11 09:01:45 51°20.424 2°41.571 7.383193 3.508533 34.220447 2.117759
2004-02-11 09:01:49 51°20.424 2°41.571 7.381288 3.516962 34.311847 2.08405
2004-02-11 09:01:55 51°20.423 2°41.57 7.381971 3.512747 34.260304 2.08405
2004-02-11 09:01:59 51°20.423 2°41.569 7.383827 3.529605 34.444821 2.185178
2004-02-11 09:02:05 51°20.423 2°41.568 7.381288 3.516119 34.297696 2.320016
2004-02-11 09:02:09 51°20.423 2°41.567 7.381288 3.516119 34.297696 2.320016
2004-02-11 09:02:15 51°20.422 2°41.567 7.376794 3.515697 34.292291 2.117759
2004-02-11 09:02:19 51°20.422 2°41.565 7.38119 3.517067 34.309649 2.218888
2004-02-11 09:02:25 51°20.422 2°41.565 7.375768 3.513906 34.276207 2.151469
2004-02-11 09:02:29 51°20.422 2°41.565 7.380311 3.512537 34.260521 2.151469
2004-02-11 09:02:35 51°20.422 2°41.564 7.387344 3.516856 34.31154 2.050341
2004-02-11 09:02:39 51°20.422 2°41.563 7.387344 3.516856 34.31154 2.050341
2004-02-11 09:02:45 51°20.422 2°41.562 7.383974 3.51654 34.307276 2.08405
2004-02-11 09:02:49 51°20.423 2°41.561 7.386904 3.499788 34.125659 2.050341
2004-02-11 09:02:55 51°20.423 2°41.56 7.388516 3.499262 34.117458 2.08405
2004-02-11 09:02:59 51°20.423 2°41.56 7.389248 3.512747 34.261972 1.982922
2004-02-11 09:03:05 51°20.424 2°41.559 7.389395 3.502633 34.151501 2.016631
2004-02-11 09:03:09 51°20.424 2°41.558 7.389395 3.502633 34.151501 2.016631
2004-02-11 09:03:15 51°20.425 2°41.556 7.389786 3.525917 34.403973 1.949212
2004-02-11 09:03:19 51°20.425 2°41.556 7.396476 3.511167 34.24067 2.050341
2004-02-11 09:03:25 51°20.426 2°41.555 7.390665 3.527708 34.420892 2.151469
2004-02-11 09:03:30 51°20.426 2°41.554 7.386611 3.510535 34.233817 2.016631
2004-02-11 09:03:35 51°20.426 2°41.553 7.382216 3.515065 34.282098 2.050341
2004-02-11 09:03:39 51°20.426 2°41.552 7.382069 3.512852 34.254776 1.982922
2004-02-11 09:03:45 51°20.426 2°41.551 7.382069 3.512852 34.254776 1.982922
2004-02-11 09:03:50 51°20.426 2°41.549 7.382265 3.514749 34.273666 1.881794
2004-02-11 09:03:55 51°20.427 2°41.548 7.377185 3.522124 34.35781 1.881794
2004-02-11 09:03:59 51°20.427 2°41.547 7.376745 3.518226 34.318041 1.982922
2004-02-11 09:04:05 51°20.428 2°41.545 7.382899 3.520544 34.344014 2.08405
2004-02-11 09:04:09 51°20.428 2°41.545 7.378113 3.527813 34.422035 1.982922
2004-02-11 09:04:15 51°20.429 2°41.543 7.378113 3.527813 34.422035 1.982922
2004-02-11 09:04:19 51°20.43 2°41.542 7.375084 3.522546 34.369909 2.151469
2004-02-11 09:04:25 51°20.431 2°41.54 7.370786 3.517383 34.315583 1.982922
2004-02-11 09:04:30 51°20.432 2°41.538 7.365803 3.526865 34.420126 2.117759
2004-02-11 09:04:35 51°20.433 2°41.536 7.364484 3.508744 34.224398 2.08405
2004-02-11 09:04:40 51°20.434 2°41.535 7.364484 3.508744 34.224398 2.08405
2004-02-11 09:04:45 51°20.435 2°41.533 7.360673 3.506321 34.201457 2.016631
2004-02-11 09:04:49 51°20.436 2°41.531 7.36336 3.513696 34.282268 1.848084
2004-02-11 09:04:55 51°20.437 2°41.529 7.361064 3.513169 34.282398 2.185178
2004-02-11 09:05:00 51°20.438 2°41.528 7.361943 3.524337 34.402741 2.08405
2004-02-11 09:05:05 51°20.44 2°41.526 7.361162 3.486619 33.996219 2.08405
2004-02-11 09:05:10 51°20.441 2°41.524 7.361162 3.486619 33.996219 2.08405
2004-02-11 09:05:15 51°20.443 2°41.522 7.362237 3.512958 34.282617 2.185178
2004-02-11 09:05:19 51°20.444 2°41.521 7.367611 3.515908 34.315458 1.982922
2004-02-11 09:05:25 51°20.446 2°41.518 7.35823 3.52539 34.418367 2.117759
2004-02-11 09:05:29 51°20.448 2°41.517 7.361992 3.519912 34.361414 2.08405
2004-02-11 09:05:35 51°20.45 2°41.514 7.359843 3.488726 34.024851 1.949212
2004-02-11 09:05:39 51°20.451 2°41.513 7.359843 3.488726 34.024851 1.949212
2004-02-11 09:05:45 51°20.453 2°41.511 7.359549 3.508955 34.244192 2.218888
2004-02-11 09:05:50 51°20.455 2°41.509 7.356911 3.51338 34.293871 2.050341
2004-02-11 09:05:55 51°20.457 2°41.507 7.355396 3.524337 34.412798 2.016631
2004-02-11 09:06:00 51°20.459 2°41.505 7.357106 3.521492 34.381917 1.915503
2004-02-11 09:06:05 51°20.46 2°41.503 7.357009 3.515803 34.317659 2.117759
2004-02-11 09:06:09 51°20.462 2°41.502 7.357009 3.515803 34.317659 2.117759
2004-02-11 09:06:15 51°20.464 2°41.499 7.359549 3.521281 34.37963 2.117759
2004-02-11 09:06:20 51°20.465 2°41.498 7.358132 3.520965 34.379549 2.08405
2004-02-11 09:06:25 51°20.466 2°41.496 7.357644 3.515592 34.319552 2.151469
2004-02-11 09:06:29 51°20.467 2°41.494 7.357986 3.513169 34.294927 1.881794
2004-02-11 09:06:35 51°20.469 2°41.492 7.359696 3.518437 34.352101 1.949212
2004-02-11 09:06:40 51°20.47 2°41.49 7.359696 3.518437 34.352101 1.949212
2004-02-11 09:06:45 51°20.471 2°41.488 7.359696 3.510956 34.268413 1.949212
2004-02-11 09:06:49 51°20.472 2°41.486 7.35911 3.514328 34.304996 1.915503
2004-02-11 09:06:55 51°20.474 2°41.484 7.359549 3.507585 34.23267 2.151469
2004-02-11 09:06:59 51°20.475 2°41.483 7.35867 3.517278 34.338684 1.881794
2004-02-11 09:07:05 51°20.478 2°41.481 7.362872 3.505689 34.211263 2.117759
2004-02-11 09:07:10 51°20.48 2°41.48 7.362872 3.505689 34.211263 2.117759
2004-02-11 09:07:15 51°20.482 2°41.479 7.356471 3.508849 34.244717 2.08405
2004-02-11 09:07:20 51°20.485 2°41.479 7.359207 3.495785 34.105522 1.915503
2004-02-11 09:07:25 51°20.487 2°41.479 7.357644 3.515487 34.318409 2.08405
2004-02-11 09:07:29 51°20.49 2°41.48 7.358865 3.511483 34.272459 2.08405
2004-02-11 09:07:35 51°20.493 2°41.483 7.365021 3.509692 34.254696 1.949212
2004-02-11 09:07:40 51°20.495 2°41.486 7.365021 3.509692 34.254696 1.949212
2004-02-11 09:07:45 51°20.497 2°41.491 7.352611 3.518858 34.350816 1.982922
2004-02-11 09:07:49 51°20.498 2°41.495 7.357302 3.519596 34.360495 1.949212
2004-02-11 09:07:55 51°20.499 2°41.502 7.353149 3.512431 34.282747 2.387435
2004-02-11 09:08:01 51°20.499 2°41.51 7.352367 3.519174 34.35341 1.915503
2004-02-11 09:08:05 51°20.499 2°41.516 7.350559 3.516224 34.325577 2.151469
2004-02-11 09:08:09 51°20.499 2°41.523 7.350559 3.516224 34.325577 2.151469
2004-02-11 09:08:15 51°20.496 2°41.532 7.349093 3.523494 34.406163 1.949212
2004-02-11 09:08:19 51°20.494 2°41.538 7.34836 3.517699 34.344095 2.08405
2004-02-11 09:08:25 51°20.49 2°41.548 7.349239 3.517594 34.344625 1.915503
2004-02-11 09:08:29 51°20.486 2°41.553 7.344988 3.508744 34.250249 2.050341
2004-02-11 09:08:35 51°20.48 2°41.562 7.349288 3.520439 34.377181 2.151469
2004-02-11 09:08:40 51°20.474 2°41.568 7.349288 3.520439 34.377181 2.151469
2004-02-11 09:08:45 51°20.467 2°41.571 7.342251 3.519069 34.363149 2.050341
2004-02-11 09:08:50 51°20.459 2°41.576 7.346503 3.514855 34.316565 2.117759
2004-02-11 09:08:55 51°20.451 2°41.578 7.34963 3.512958 34.297654 2.151469
2004-02-11 09:09:00 51°20.443 2°41.578 7.348311 3.522967 34.408827 2.117759
2004-02-11 09:09:05 51°20.434 2°41.577 7.343668 3.521703 34.396775 2.016631
2004-02-11 09:09:10 51°20.424 2°41.575 7.352513 3.519596 34.372218 2.185178
2004-02-11 09:09:15 51°20.414 2°41.569 7.352513 3.519596 34.372218 2.185178
2004-02-11 09:09:19 51°20.405 2°41.564 7.358426 3.520228 34.37992 2.185178
2004-02-11 09:09:25 51°20.393 2°41.552 7.350266 3.519174 34.366805 2.08405
2004-02-11 09:09:29 51°20.383 2°41.545 7.347529 3.521808 34.396242 2.050341
2004-02-11 09:09:35 51°20.37 2°41.531 7.345574 3.520228 34.378244 2.151469
2004-02-11 09:09:39 51°20.36 2°41.522 7.345574 3.520228 34.378244 2.151469
2004-02-11 09:09:45 51°20.347 2°41.505 7.352562 3.508639 34.249106 2.117759
2004-02-11 09:09:49 51°20.337 2°41.494 7.344988 3.520439 34.375506 2.050341
2004-02-11 09:09:55 51°20.324 2°41.475 7.34748 3.503898 34.197668 2.117759
2004-02-11 09:10:00 51°20.312 2°41.459 7.349582 3.522757 34.403185 1.949212
2004-02-11 09:10:05 51°20.301 2°41.441 7.345428 3.521282 34.389684 2.117759
2004-02-11 09:10:09 51°20.292 2°41.428 7.345428 3.521282 34.389684 2.117759
2004-02-11 09:10:15 51°20.279 2°41.406 7.348506 3.521387 34.38999 2.117759
2004-02-11 09:10:19 51°20.27 2°41.393 7.349142 3.515803 34.33104 2.117759
2004-02-11 09:10:25 51°20.256 2°41.373 7.341078 3.512853 34.299018 2.08405
2004-02-11 09:10:30 51°20.243 2°41.358 7.338732 3.493678 34.08932 2.050341
2004-02-11 09:10:35 51°20.23 2°41.342 7.339172 3.521071 34.387396 2.218888
2004-02-11 09:10:39 51°20.22 2°41.333 7.339172 3.521071 34.387396 2.218888
2004-02-11 09:10:45 51°20.203 2°41.319 7.336826 3.509587 34.264405 2.252597
2004-02-11 09:10:50 51°20.19 2°41.308 7.340296 3.507164 34.238942 2.151469
2004-02-11 09:10:55 51°20.177 2°41.298 7.34577 3.506637 34.236563 2.117759
2004-02-11 09:10:59 51°20.167 2°41.291 7.346601 3.509271 34.268491 2.185178
2004-02-11 09:11:05 51°20.153 2°41.281 7.356764 3.506953 34.242497 2.421144
2004-02-11 09:11:10 51°20.141 2°41.273 7.357155 3.510008 34.276497 2.151469
2004-02-11 09:11:15 51°20.13 2°41.266 7.357155 3.510008 34.276497 2.151469
2004-02-11 09:11:19 51°20.122 2°41.26 7.359305 3.519701 34.377551 2.421144
2004-02-11 09:11:25 51°20.109 2°41.252 7.357009 3.514749 34.323786 2.218888
2004-02-11 09:11:29 51°20.102 2°41.246 7.354908 3.50769 34.242155 2.218888
2004-02-11 09:11:35 51°20.091 2°41.242 7.350559 3.516962 34.3386 2.252597
2004-02-11 09:11:39 51°20.084 2°41.238 7.350559 3.516962 34.3386 2.252597
2004-02-11 09:11:45 51°20.074 2°41.236 7.346259 3.518015 34.347526 2.185178
2004-02-11 09:11:49 51°20.067 2°41.237 7.344304 3.514749 34.312077 2.151469
2004-02-11 09:11:55 51°20.058 2°41.239 7.341469 3.522335 34.391905 2.286306
2004-02-11 09:11:59 51°20.053 2°41.242 7.338537 3.513801 34.304294 2.117759
2004-02-11 09:12:05 51°20.046 2°41.249 7.337462 3.499051 34.146762 2.151469
2004-02-11 09:12:09 51°20.041 2°41.253 7.334773 3.517594 34.353833 2.218888
2004-02-11 09:12:15 51°20.037 2°41.264 7.334773 3.517594 34.353833 2.218888
2004-02-11 09:12:20 51°20.033 2°41.272 7.334138 3.508007 34.251428 2.08405
2004-02-11 09:12:25 51°20.032 2°41.282 7.331987 3.518016 34.364272 2.117759
2004-02-11 09:12:29 51°20.031 2°41.289 7.333014 3.512221 34.303024 2.151469
2004-02-11 09:12:35 51°20.032 2°41.3 7.32749 3.506426 34.241787 2.218888
2004-02-11 09:12:39 51°20.033 2°41.307 7.32749 3.506426 34.241787 2.218888
2004-02-11 09:12:45 51°20.037 2°41.317 7.324508 3.516435 34.352135 2.151469
2004-02-11 09:12:49 51°20.04 2°41.323 7.320988 3.52086 34.401037 2.185178
2004-02-11 09:12:55 51°20.045 2°41.33 7.32094 3.492414 34.096381 2.016631
2004-02-11 09:12:59 51°20.048 2°41.335 7.319228 3.50748 34.262413 2.050341
2004-02-11 09:13:05 51°20.055 2°41.339 7.318788 3.518332 34.382793 2.151469
2004-02-11 09:13:09 51°20.06 2°41.341 7.318788 3.518332 34.382793 2.151469
2004-02-11 09:13:15 51°20.068 2°41.341 7.315171 3.519702 34.398513 2.050341
2004-02-11 09:13:19 51°20.073 2°41.341 7.315073 3.470185 33.863565 2.286306
2004-02-11 09:13:25 51°20.079 2°41.339 7.314779 3.514328 34.345162 2.151469
2004-02-11 09:13:30 51°20.084 2°41.336 7.308276 3.517805 34.383778 2.151469
2004-02-11 09:13:35 51°20.088 2°41.333 7.308912 3.505373 34.251227 2.08405
2004-02-11 09:13:40 51°20.092 2°41.33 7.308912 3.505373 34.251227 2.08405
2004-02-11 09:13:45 51°20.096 2°41.326 7.305783 3.511694 34.323245 2.218888
2004-02-11 09:13:49 51°20.099 2°41.322 7.30725 3.514223 34.349045 2.117759
2004-02-11 09:13:55 51°20.103 2°41.316 7.318348 3.490518 34.094095 2.151469
2004-02-11 09:14:00 51°20.106 2°41.31 7.31253 3.514012 34.34927 2.151469
2004-02-11 09:14:05 51°20.108 2°41.305 7.313606 3.500421 34.203292 2.117759
2004-02-11 09:14:09 51°20.109 2°41.302 7.313606 3.500421 34.203292 2.117759
2004-02-11 09:14:15 51°20.109 2°41.298 7.306907 3.502739 34.228467 2.185178
2004-02-11 09:14:19 51°20.109 2°41.295 7.315171 3.517594 34.387361 2.218888
2004-02-11 09:14:25 51°20.107 2°41.293 7.315171 3.507269 34.273498 2.218888
2004-02-11 09:14:30 51°20.106 2°41.291 7.323677 3.518332 34.393698 2.185178
2004-02-11 09:14:35 51°20.104 2°41.29 7.315855 3.50748 34.275787 2.117759
2004-02-11 09:14:40 51°20.101 2°41.289 7.315855 3.50748 34.275787 2.117759
2004-02-11 09:14:45 51°20.099 2°41.289 7.316637 3.510957 34.311046 2.151469
2004-02-11 09:14:50 51°20.097 2°41.288 7.318544 3.506111 34.258402 2.117759
2004-02-11 09:14:55 51°20.096 2°41.286 7.313948 3.511062 34.305496 2.117759
2004-02-11 09:15:01 51°20.094 2°41.283 7.318104 3.515698 34.359205 2.185178
2004-02-11 09:15:05 51°20.093 2°41.28 7.320451 3.514012 34.341728 2.252597
2004-02-11 09:15:10 51°20.093 2°41.277 7.320695 3.51201 34.319144 2.151469
2004-02-11 09:15:15 51°20.094 2°41.272 7.320695 3.51201 34.319144 2.151469
2004-02-11 09:15:21 51°20.095 2°41.267 7.317615 3.517173 34.377748 2.151469
2004-02-11 09:15:25 51°20.096 2°41.263 7.317468 3.505268 34.250919 2.151469
2004-02-11 09:15:30 51°20.097 2°41.258 7.320011 3.517173 34.376909 2.488563
2004-02-11 09:15:35 51°20.098 2°41.254 7.316002 3.49842 34.169881 2.151469
2004-02-11 09:15:40 51°20.099 2°41.25 7.316002 3.49842 34.169881 2.151469
2004-02-11 09:15:45 51°20.1 2°41.246 7.321086 3.503371 34.221973 2.353725
2004-02-11 09:15:49 51°20.1 2°41.242 7.318691 3.517384 34.375006 2.286306
2004-02-11 09:15:55 51°20.102 2°41.238 7.320793 3.512221 34.318084 2.117759
2004-02-11 09:16:00 51°20.102 2°41.234 7.318446 3.508112 34.274292 2.252597
2004-02-11 09:16:05 51°20.103 2°41.231 7.321477 3.515276 34.351275 2.185178
2004-02-11 09:16:09 51°20.104 2°41.227 7.324166 3.514855 34.347534 2.218888
2004-02-11 09:16:15 51°20.104 2°41.223 7.324166 3.514855 34.347534 2.218888